<?xml version="1.0" encoding="UTF-8" standalone="no" ?>
<gpx xmlns="http://www.topografix.com/GPX/1/1" xmlns:xsi="http://www.w3.org/2001/XMLSchema-instance" xsi:schemaLocation="http://www.topografix.com/GPX/1/1 http://www.topografix.com/GPX/1/1/gpx.xsd" version="1.1" creator="VisuGPX - https://www.visugpx.com">
  <metadata>
    <name>Honfleur</name>
  </metadata>
  <trk>
    <name><![CDATA[trace2]]></name>
    <trkseg>
      <trkpt lat="49.41903" lon="0.23643">
        <ele>7.1</ele>
        <time>2019-11-16T14:31:03Z</time>
      </trkpt>
      <trkpt lat="49.41898" lon="0.23634">
        <ele>7.5</ele>
        <time>2019-11-16T14:29:04Z</time>
      </trkpt>
      <trkpt lat="49.41903" lon="0.2364">
        <ele>7.2</ele>
        <time>2019-11-16T14:29:04Z</time>
      </trkpt>
      <trkpt lat="49.41903" lon="0.23642">
        <ele>7.2</ele>
        <time>2019-11-16T14:28:59Z</time>
      </trkpt>
      <trkpt lat="49.41897" lon="0.23633">
        <ele>7.5</ele>
        <time>2019-11-16T14:28:56Z</time>
      </trkpt>
      <trkpt lat="49.41897" lon="0.23633">
        <ele>8</ele>
        <time>2019-11-16T14:28:53Z</time>
      </trkpt>
      <trkpt lat="49.41897" lon="0.23633">
        <ele>7.5</ele>
        <time>2019-11-16T14:28:51Z</time>
      </trkpt>
      <trkpt lat="49.41897" lon="0.23633">
        <ele>7.5</ele>
        <time>2019-11-16T14:28:49Z</time>
      </trkpt>
      <trkpt lat="49.41899" lon="0.23625">
        <ele>59.3136</ele>
        <time>2019-11-16T14:28:46Z</time>
      </trkpt>
      <trkpt lat="49.419" lon="0.2362">
        <ele>59.5061</ele>
        <time>2019-11-16T14:28:41Z</time>
      </trkpt>
      <trkpt lat="49.419" lon="0.23617">
        <ele>59.6412</ele>
        <time>2019-11-16T14:28:36Z</time>
      </trkpt>
      <trkpt lat="49.41901" lon="0.23612">
        <ele>59.7835</ele>
        <time>2019-11-16T14:28:34Z</time>
      </trkpt>
      <trkpt lat="49.41902" lon="0.23605">
        <ele>60.0098</ele>
        <time>2019-11-16T14:28:34Z</time>
      </trkpt>
      <trkpt lat="49.41901" lon="0.23597">
        <ele>60.421</ele>
        <time>2019-11-16T14:26:30Z</time>
      </trkpt>
      <trkpt lat="49.41897" lon="0.23594">
        <ele>60.8725</ele>
        <time>2019-11-16T14:26:30Z</time>
      </trkpt>
      <trkpt lat="49.41895" lon="0.23593">
        <ele>61.0642</ele>
        <time>2019-11-16T14:26:22Z</time>
      </trkpt>
      <trkpt lat="49.41884" lon="0.23574">
        <ele>8.2</ele>
        <time>2019-11-16T14:26:17Z</time>
      </trkpt>
      <trkpt lat="49.41884" lon="0.23574">
        <ele>8.2</ele>
        <time>2019-11-16T14:26:15Z</time>
      </trkpt>
      <trkpt lat="49.41884" lon="0.23574">
        <ele>8.2</ele>
        <time>2019-11-16T14:26:11Z</time>
      </trkpt>
      <trkpt lat="49.41884" lon="0.23574">
        <ele>8.2</ele>
        <time>2019-11-16T14:26:11Z</time>
      </trkpt>
      <trkpt lat="49.41886" lon="0.23568">
        <ele>64.0051</ele>
        <time>2019-11-16T14:25:36Z</time>
      </trkpt>
      <trkpt lat="49.41886" lon="0.23564">
        <ele>64.1189</ele>
        <time>2019-11-16T14:25:29Z</time>
      </trkpt>
      <trkpt lat="49.41886" lon="0.23557">
        <ele>64.3322</ele>
        <time>2019-11-16T14:25:26Z</time>
      </trkpt>
      <trkpt lat="49.41883" lon="0.2351">
        <ele>8.5</ele>
        <time>2019-11-16T14:25:20Z</time>
      </trkpt>
      <trkpt lat="49.41883" lon="0.2351">
        <ele>8.5</ele>
        <time>2019-11-16T14:25:17Z</time>
      </trkpt>
      <trkpt lat="49.41883" lon="0.2351">
        <ele>8.5</ele>
        <time>2019-11-16T14:25:14Z</time>
      </trkpt>
      <trkpt lat="49.41883" lon="0.23505">
        <ele>66.0682</ele>
        <time>2019-11-16T14:25:13Z</time>
      </trkpt>
      <trkpt lat="49.41883" lon="0.23497">
        <ele>66.2778</ele>
        <time>2019-11-16T14:25:07Z</time>
      </trkpt>
      <trkpt lat="49.41886" lon="0.23491">
        <ele>66.3903</ele>
        <time>2019-11-16T14:25:01Z</time>
      </trkpt>
      <trkpt lat="49.41887" lon="0.23482">
        <ele>66.4992</ele>
        <time>2019-11-16T14:24:56Z</time>
      </trkpt>
      <trkpt lat="49.41887" lon="0.23477">
        <ele>66.5346</ele>
        <time>2019-11-16T14:24:52Z</time>
      </trkpt>
      <trkpt lat="49.41887" lon="0.2347">
        <ele>66.7762</ele>
        <time>2019-11-16T14:24:52Z</time>
      </trkpt>
      <trkpt lat="49.41886" lon="0.23463">
        <ele>67.0477</ele>
        <time>2019-11-16T14:24:47Z</time>
      </trkpt>
      <trkpt lat="49.41885" lon="0.23456">
        <ele>67.2881</ele>
        <time>2019-11-16T14:24:40Z</time>
      </trkpt>
      <trkpt lat="49.41883" lon="0.23449">
        <ele>67.5139</ele>
        <time>2019-11-16T14:24:37Z</time>
      </trkpt>
      <trkpt lat="49.41887" lon="0.23428">
        <ele>10.2</ele>
        <time>2019-11-16T14:24:33Z</time>
      </trkpt>
      <trkpt lat="49.41887" lon="0.23428">
        <ele>10.2</ele>
        <time>2019-11-16T14:24:31Z</time>
      </trkpt>
      <trkpt lat="49.41887" lon="0.23428">
        <ele>10.2</ele>
        <time>2019-11-16T14:24:29Z</time>
      </trkpt>
      <trkpt lat="49.4189" lon="0.23422">
        <ele>68.4954</ele>
        <time>2019-11-16T14:24:25Z</time>
      </trkpt>
      <trkpt lat="49.41895" lon="0.23421">
        <ele>68.7793</ele>
        <time>2019-11-16T14:24:17Z</time>
      </trkpt>
      <trkpt lat="49.41898" lon="0.23418">
        <ele>68.8861</ele>
        <time>2019-11-16T14:24:08Z</time>
      </trkpt>
      <trkpt lat="49.41903" lon="0.23414">
        <ele>68.9616</ele>
        <time>2019-11-16T14:24:05Z</time>
      </trkpt>
      <trkpt lat="49.41908" lon="0.23408">
        <ele>69.0004</ele>
        <time>2019-11-16T14:24:00Z</time>
      </trkpt>
      <trkpt lat="49.41912" lon="0.23403">
        <ele>68.8713</ele>
        <time>2019-11-16T14:23:56Z</time>
      </trkpt>
      <trkpt lat="49.41911" lon="0.23395">
        <ele>68.7112</ele>
        <time>2019-11-16T14:23:55Z</time>
      </trkpt>
      <trkpt lat="49.4191" lon="0.23392">
        <ele>68.6254</ele>
        <time>2019-11-16T14:21:49Z</time>
      </trkpt>
      <trkpt lat="49.41908" lon="0.2339">
        <ele>68.5871</ele>
        <time>2019-11-16T14:21:49Z</time>
      </trkpt>
      <trkpt lat="49.41904" lon="0.23383">
        <ele>68.6376</ele>
        <time>2019-11-16T14:20:24Z</time>
      </trkpt>
      <trkpt lat="49.41913" lon="0.23352">
        <ele>68.0714</ele>
        <time>2019-11-16T14:20:17Z</time>
      </trkpt>
      <trkpt lat="49.41913" lon="0.23352">
        <ele>68.0714</ele>
        <time>2019-11-16T14:20:12Z</time>
      </trkpt>
      <trkpt lat="49.41925" lon="0.2336">
        <ele>9.9</ele>
        <time>2019-11-16T14:20:08Z</time>
      </trkpt>
      <trkpt lat="49.41925" lon="0.2336">
        <ele>9.9</ele>
        <time>2019-11-16T14:20:04Z</time>
      </trkpt>
      <trkpt lat="49.41925" lon="0.2336">
        <ele>9.9</ele>
        <time>2019-11-16T14:20:02Z</time>
      </trkpt>
      <trkpt lat="49.41928" lon="0.23359">
        <ele>67.6309</ele>
        <time>2019-11-16T14:19:58Z</time>
      </trkpt>
      <trkpt lat="49.41939" lon="0.23355">
        <ele>67.6458</ele>
        <time>2019-11-16T14:19:55Z</time>
      </trkpt>
      <trkpt lat="49.4194" lon="0.23344">
        <ele>67.6615</ele>
        <time>2019-11-16T14:19:53Z</time>
      </trkpt>
      <trkpt lat="49.4194" lon="0.23335">
        <ele>67.6763</ele>
        <time>2019-11-16T14:19:51Z</time>
      </trkpt>
      <trkpt lat="49.41938" lon="0.23329">
        <ele>67.7037</ele>
        <time>2019-11-16T14:19:46Z</time>
      </trkpt>
      <trkpt lat="49.41935" lon="0.23324">
        <ele>67.7855</ele>
        <time>2019-11-16T14:18:42Z</time>
      </trkpt>
      <trkpt lat="49.41938" lon="0.23318">
        <ele>67.8005</ele>
        <time>2019-11-16T14:18:35Z</time>
      </trkpt>
      <trkpt lat="49.4194" lon="0.23308">
        <ele>67.818</ele>
        <time>2019-11-16T14:18:31Z</time>
      </trkpt>
      <trkpt lat="49.41915" lon="0.23273">
        <ele>67.8478</ele>
        <time>2019-11-16T14:18:28Z</time>
      </trkpt>
      <trkpt lat="49.419" lon="0.2334">
        <ele>67.9377</ele>
        <time>2019-11-16T14:18:21Z</time>
      </trkpt>
      <trkpt lat="49.41905" lon="0.23342">
        <ele>67.9366</ele>
        <time>2019-11-16T14:18:17Z</time>
      </trkpt>
      <trkpt lat="49.41909" lon="0.23342">
        <ele>67.9212</ele>
        <time>2019-11-16T14:18:13Z</time>
      </trkpt>
      <trkpt lat="49.41916" lon="0.23345">
        <ele>67.8031</ele>
        <time>2019-11-16T14:18:10Z</time>
      </trkpt>
      <trkpt lat="49.41923" lon="0.23342">
        <ele>67.6831</ele>
        <time>2019-11-16T14:18:04Z</time>
      </trkpt>
      <trkpt lat="49.41926" lon="0.23336">
        <ele>67.675</ele>
        <time>2019-11-16T14:18:00Z</time>
      </trkpt>
      <trkpt lat="49.4193" lon="0.23331">
        <ele>67.6584</ele>
        <time>2019-11-16T14:17:57Z</time>
      </trkpt>
      <trkpt lat="49.41932" lon="0.23327">
        <ele>67.6497</ele>
        <time>2019-11-16T14:17:54Z</time>
      </trkpt>
      <trkpt lat="49.41935" lon="0.23321">
        <ele>67.6051</ele>
        <time>2019-11-16T14:17:49Z</time>
      </trkpt>
      <trkpt lat="49.41939" lon="0.23314">
        <ele>67.5756</ele>
        <time>2019-11-16T14:17:37Z</time>
      </trkpt>
      <trkpt lat="49.41944" lon="0.23313">
        <ele>67.5593</ele>
        <time>2019-11-16T14:17:30Z</time>
      </trkpt>
      <trkpt lat="49.41947" lon="0.23307">
        <ele>67.5532</ele>
        <time>2019-11-16T14:17:30Z</time>
      </trkpt>
      <trkpt lat="49.41948" lon="0.23301">
        <ele>67.5627</ele>
        <time>2019-11-16T14:15:46Z</time>
      </trkpt>
      <trkpt lat="49.41948" lon="0.23295">
        <ele>67.4507</ele>
        <time>2019-11-16T14:15:46Z</time>
      </trkpt>
      <trkpt lat="49.41949" lon="0.2329">
        <ele>67.4258</ele>
        <time>2019-11-16T14:15:41Z</time>
      </trkpt>
      <trkpt lat="49.41959" lon="0.23242">
        <ele>12.8</ele>
        <time>2019-11-16T14:15:38Z</time>
      </trkpt>
      <trkpt lat="49.41959" lon="0.23242">
        <ele>12.8</ele>
        <time>2019-11-16T14:15:34Z</time>
      </trkpt>
      <trkpt lat="49.41959" lon="0.23242">
        <ele>12.8</ele>
        <time>2019-11-16T14:15:27Z</time>
      </trkpt>
      <trkpt lat="49.41959" lon="0.23242">
        <ele>12.8</ele>
        <time>2019-11-16T14:15:24Z</time>
      </trkpt>
      <trkpt lat="49.41962" lon="0.23235">
        <ele>64.653</ele>
        <time>2019-11-16T14:14:50Z</time>
      </trkpt>
      <trkpt lat="49.41964" lon="0.23229">
        <ele>64.6362</ele>
        <time>2019-11-16T14:14:47Z</time>
      </trkpt>
      <trkpt lat="49.41966" lon="0.23222">
        <ele>64.591</ele>
        <time>2019-11-16T14:14:43Z</time>
      </trkpt>
      <trkpt lat="49.41968" lon="0.23217">
        <ele>64.5694</ele>
        <time>2019-11-16T14:14:39Z</time>
      </trkpt>
      <trkpt lat="49.41977" lon="0.23208">
        <ele>64.7828</ele>
        <time>2019-11-16T14:14:33Z</time>
      </trkpt>
      <trkpt lat="49.4198" lon="0.2321">
        <ele>64.8149</ele>
        <time>2019-11-16T14:14:30Z</time>
      </trkpt>
      <trkpt lat="49.41983" lon="0.23211">
        <ele>64.8604</ele>
        <time>2019-11-16T14:14:29Z</time>
      </trkpt>
      <trkpt lat="49.41985" lon="0.23211">
        <ele>64.9332</ele>
        <time>2019-11-16T14:14:29Z</time>
      </trkpt>
      <trkpt lat="49.4199" lon="0.23212">
        <ele>65.062</ele>
        <time>2019-11-16T14:14:04Z</time>
      </trkpt>
      <trkpt lat="49.41996" lon="0.23213">
        <ele>65.1164</ele>
        <time>2019-11-16T14:14:04Z</time>
      </trkpt>
      <trkpt lat="49.41999" lon="0.23215">
        <ele>65.1333</ele>
        <time>2019-11-16T14:13:56Z</time>
      </trkpt>
      <trkpt lat="49.42015" lon="0.2325">
        <ele>10.5</ele>
        <time>2019-11-16T14:13:54Z</time>
      </trkpt>
      <trkpt lat="49.42015" lon="0.2325">
        <ele>10.5</ele>
        <time>2019-11-16T14:13:42Z</time>
      </trkpt>
      <trkpt lat="49.42015" lon="0.2325">
        <ele>10.5</ele>
        <time>2019-11-16T14:13:36Z</time>
      </trkpt>
      <trkpt lat="49.42015" lon="0.2325">
        <ele>10.5</ele>
        <time>2019-11-16T14:13:33Z</time>
      </trkpt>
      <trkpt lat="49.42016" lon="0.23246">
        <ele>65.6506</ele>
        <time>2019-11-16T14:13:26Z</time>
      </trkpt>
      <trkpt lat="49.42018" lon="0.23232">
        <ele>65.9249</ele>
        <time>2019-11-16T14:13:22Z</time>
      </trkpt>
      <trkpt lat="49.42023" lon="0.23232">
        <ele>65.9638</ele>
        <time>2019-11-16T14:13:15Z</time>
      </trkpt>
      <trkpt lat="49.42026" lon="0.23233">
        <ele>65.9678</ele>
        <time>2019-11-16T14:13:15Z</time>
      </trkpt>
      <trkpt lat="49.42032" lon="0.23235">
        <ele>65.968</ele>
        <time>2019-11-16T14:12:58Z</time>
      </trkpt>
      <trkpt lat="49.42036" lon="0.23232">
        <ele>65.9708</ele>
        <time>2019-11-16T14:12:58Z</time>
      </trkpt>
      <trkpt lat="49.42039" lon="0.23234">
        <ele>65.9659</ele>
        <time>2019-11-16T14:12:51Z</time>
      </trkpt>
      <trkpt lat="49.42054" lon="0.23235">
        <ele>15</ele>
        <time>2019-11-16T14:12:48Z</time>
      </trkpt>
      <trkpt lat="49.42054" lon="0.23235">
        <ele>15</ele>
        <time>2019-11-16T14:12:47Z</time>
      </trkpt>
      <trkpt lat="49.42054" lon="0.23235">
        <ele>15</ele>
        <time>2019-11-16T14:10:35Z</time>
      </trkpt>
      <trkpt lat="49.42054" lon="0.23235">
        <ele>15</ele>
        <time>2019-11-16T14:10:19Z</time>
      </trkpt>
      <trkpt lat="49.42056" lon="0.23236">
        <ele>65.7209</ele>
        <time>2019-11-16T14:10:18Z</time>
      </trkpt>
      <trkpt lat="49.42079" lon="0.23238">
        <ele>65.8278</ele>
        <time>2019-11-16T14:10:14Z</time>
      </trkpt>
      <trkpt lat="49.42079" lon="0.23238">
        <ele>65.8278</ele>
        <time>2019-11-16T14:09:47Z</time>
      </trkpt>
      <trkpt lat="49.42082" lon="0.23243">
        <ele>66.1429</ele>
        <time>2019-11-16T14:09:38Z</time>
      </trkpt>
      <trkpt lat="49.42081" lon="0.23249">
        <ele>66.144</ele>
        <time>2019-11-16T14:09:36Z</time>
      </trkpt>
      <trkpt lat="49.42079" lon="0.23257">
        <ele>66.1445</ele>
        <time>2019-11-16T14:09:09Z</time>
      </trkpt>
      <trkpt lat="49.42071" lon="0.23265">
        <ele>66.3291</ele>
        <time>2019-11-16T14:08:59Z</time>
      </trkpt>
      <trkpt lat="49.42075" lon="0.23271">
        <ele>66.8759</ele>
        <time>2019-11-16T14:08:58Z</time>
      </trkpt>
      <trkpt lat="49.42073" lon="0.23279">
        <ele>66.948</ele>
        <time>2019-11-16T14:08:57Z</time>
      </trkpt>
      <trkpt lat="49.42068" lon="0.23279">
        <ele>67.1756</ele>
        <time>2019-11-16T14:08:55Z</time>
      </trkpt>
      <trkpt lat="49.4206" lon="0.2327">
        <ele>67.1356</ele>
        <time>2019-11-16T14:08:19Z</time>
      </trkpt>
      <trkpt lat="49.42059" lon="0.23266">
        <ele>67.1334</ele>
        <time>2019-11-16T14:08:19Z</time>
      </trkpt>
      <trkpt lat="49.42058" lon="0.2326">
        <ele>67.1324</ele>
        <time>2019-11-16T14:06:46Z</time>
      </trkpt>
      <trkpt lat="49.42056" lon="0.23251">
        <ele>67.1306</ele>
        <time>2019-11-16T14:06:46Z</time>
      </trkpt>
      <trkpt lat="49.42055" lon="0.23236">
        <ele>67.8339</ele>
        <time>2019-11-16T14:06:39Z</time>
      </trkpt>
      <trkpt lat="49.42083" lon="0.23258">
        <ele>12.8</ele>
        <time>2019-11-16T14:06:34Z</time>
      </trkpt>
      <trkpt lat="49.42083" lon="0.23258">
        <ele>12.8</ele>
        <time>2019-11-16T14:06:32Z</time>
      </trkpt>
      <trkpt lat="49.42083" lon="0.23258">
        <ele>12.8</ele>
        <time>2019-11-16T14:06:30Z</time>
      </trkpt>
      <trkpt lat="49.42083" lon="0.23258">
        <ele>12.8</ele>
        <time>2019-11-16T14:06:26Z</time>
      </trkpt>
      <trkpt lat="49.42086" lon="0.23252">
        <ele>69.3663</ele>
        <time>2019-11-16T14:04:25Z</time>
      </trkpt>
      <trkpt lat="49.42087" lon="0.23248">
        <ele>69.3875</ele>
        <time>2019-11-16T14:01:39Z</time>
      </trkpt>
      <trkpt lat="49.42088" lon="0.23243">
        <ele>69.4153</ele>
        <time>2019-11-16T14:01:27Z</time>
      </trkpt>
      <trkpt lat="49.42089" lon="0.2324">
        <ele>69.4647</ele>
        <time>2019-11-16T14:01:14Z</time>
      </trkpt>
      <trkpt lat="49.42113" lon="0.23246">
        <ele>69.6586</ele>
        <time>2019-11-16T14:01:05Z</time>
      </trkpt>
      <trkpt lat="49.42113" lon="0.23246">
        <ele>69.6586</ele>
        <time>2019-11-16T14:00:54Z</time>
      </trkpt>
      <trkpt lat="49.42113" lon="0.23239">
        <ele>69.4385</ele>
        <time>2019-11-16T14:00:08Z</time>
      </trkpt>
      <trkpt lat="49.42111" lon="0.2323">
        <ele>69.1878</ele>
        <time>2019-11-16T13:59:50Z</time>
      </trkpt>
      <trkpt lat="49.42113" lon="0.23224">
        <ele>68.9984</ele>
        <time>2019-11-16T13:59:50Z</time>
      </trkpt>
      <trkpt lat="49.42111" lon="0.23218">
        <ele>68.7202</ele>
        <time>2019-11-16T13:58:43Z</time>
      </trkpt>
      <trkpt lat="49.42114" lon="0.23205">
        <ele>67.7155</ele>
        <time>2019-11-16T13:58:36Z</time>
      </trkpt>
      <trkpt lat="49.42118" lon="0.23205">
        <ele>67.5883</ele>
        <time>2019-11-16T13:58:34Z</time>
      </trkpt>
      <trkpt lat="49.42143" lon="0.23219">
        <ele>16.4</ele>
        <time>2019-11-16T13:58:34Z</time>
      </trkpt>
      <trkpt lat="49.42143" lon="0.23219">
        <ele>16.4</ele>
        <time>2019-11-16T13:58:23Z</time>
      </trkpt>
      <trkpt lat="49.42143" lon="0.23219">
        <ele>16.4</ele>
        <time>2019-11-16T13:58:23Z</time>
      </trkpt>
      <trkpt lat="49.42144" lon="0.23214">
        <ele>67.4952</ele>
        <time>2019-11-16T13:58:16Z</time>
      </trkpt>
      <trkpt lat="49.42153" lon="0.23193">
        <ele>17.1</ele>
        <time>2019-11-16T13:58:16Z</time>
      </trkpt>
      <trkpt lat="49.42153" lon="0.23193">
        <ele>17.1</ele>
        <time>2019-11-16T13:58:11Z</time>
      </trkpt>
      <trkpt lat="49.42153" lon="0.23193">
        <ele>17.1</ele>
        <time>2019-11-16T13:58:06Z</time>
      </trkpt>
      <trkpt lat="49.42153" lon="0.23193">
        <ele>17.1</ele>
        <time>2019-11-16T13:58:03Z</time>
      </trkpt>
      <trkpt lat="49.42162" lon="0.23193">
        <ele>17.1</ele>
        <time>2019-11-16T13:58:00Z</time>
      </trkpt>
      <trkpt lat="49.42162" lon="0.23193">
        <ele>17.1</ele>
        <time>2019-11-16T13:57:57Z</time>
      </trkpt>
      <trkpt lat="49.42162" lon="0.23193">
        <ele>17.1</ele>
        <time>2019-11-16T13:57:51Z</time>
      </trkpt>
      <trkpt lat="49.42165" lon="0.23202">
        <ele>67.4768</ele>
        <time>2019-11-16T13:57:51Z</time>
      </trkpt>
      <trkpt lat="49.42169" lon="0.23207">
        <ele>67.479</ele>
        <time>2019-11-16T13:57:33Z</time>
      </trkpt>
      <trkpt lat="49.42173" lon="0.23213">
        <ele>67.4754</ele>
        <time>2019-11-16T13:57:33Z</time>
      </trkpt>
      <trkpt lat="49.42175" lon="0.2322">
        <ele>67.4505</ele>
        <time>2019-11-16T13:57:25Z</time>
      </trkpt>
      <trkpt lat="49.42189" lon="0.23231">
        <ele>14.1</ele>
        <time>2019-11-16T13:57:21Z</time>
      </trkpt>
      <trkpt lat="49.42189" lon="0.23231">
        <ele>14.1</ele>
        <time>2019-11-16T13:57:16Z</time>
      </trkpt>
      <trkpt lat="49.42189" lon="0.23231">
        <ele>14.1</ele>
        <time>2019-11-16T13:54:43Z</time>
      </trkpt>
      <trkpt lat="49.42189" lon="0.23231">
        <ele>14.1</ele>
        <time>2019-11-16T13:54:29Z</time>
      </trkpt>
      <trkpt lat="49.42191" lon="0.23227">
        <ele>67.3176</ele>
        <time>2019-11-16T13:54:22Z</time>
      </trkpt>
      <trkpt lat="49.42194" lon="0.23222">
        <ele>67.3008</ele>
        <time>2019-11-16T13:54:16Z</time>
      </trkpt>
      <trkpt lat="49.42215" lon="0.23211">
        <ele>13.5</ele>
        <time>2019-11-16T13:54:12Z</time>
      </trkpt>
      <trkpt lat="49.42215" lon="0.23211">
        <ele>13.5</ele>
        <time>2019-11-16T13:47:39Z</time>
      </trkpt>
      <trkpt lat="49.42215" lon="0.23211">
        <ele>13.5</ele>
        <time>2019-11-16T13:45:12Z</time>
      </trkpt>
      <trkpt lat="49.4221" lon="0.23214">
        <ele>67.1843</ele>
        <time>2019-11-16T13:45:03Z</time>
      </trkpt>
      <trkpt lat="49.42207" lon="0.2322">
        <ele>67.1924</ele>
        <time>2019-11-16T13:45:00Z</time>
      </trkpt>
      <trkpt lat="49.42183" lon="0.23231">
        <ele>72.927</ele>
        <time>2019-11-16T13:44:55Z</time>
      </trkpt>
      <trkpt lat="49.42183" lon="0.23231">
        <ele>72.927</ele>
        <time>2019-11-16T13:44:32Z</time>
      </trkpt>
      <trkpt lat="49.42185" lon="0.23238">
        <ele>73.398</ele>
        <time>2019-11-16T13:44:23Z</time>
      </trkpt>
      <trkpt lat="49.42185" lon="0.23245">
        <ele>73.5539</ele>
        <time>2019-11-16T13:44:04Z</time>
      </trkpt>
      <trkpt lat="49.4218" lon="0.2325">
        <ele>73.81</ele>
        <time>2019-11-16T13:43:54Z</time>
      </trkpt>
      <trkpt lat="49.42176" lon="0.23257">
        <ele>74.9894</ele>
        <time>2019-11-16T13:43:50Z</time>
      </trkpt>
      <trkpt lat="49.42175" lon="0.23263">
        <ele>75.4769</ele>
        <time>2019-11-16T13:36:44Z</time>
      </trkpt>
      <trkpt lat="49.42171" lon="0.23268">
        <ele>76.9667</ele>
        <time>2019-11-16T13:34:22Z</time>
      </trkpt>
      <trkpt lat="49.4217" lon="0.23271">
        <ele>78.1836</ele>
        <time>2019-11-16T13:34:06Z</time>
      </trkpt>
      <trkpt lat="49.42168" lon="0.23279">
        <ele>78.6664</ele>
        <time>2019-11-16T13:34:00Z</time>
      </trkpt>
      <trkpt lat="49.42158" lon="0.23289">
        <ele>73.9423</ele>
        <time>2019-11-16T12:41:56Z</time>
      </trkpt>
      <trkpt lat="49.42158" lon="0.23289">
        <ele>73.9423</ele>
        <time>2019-11-16T12:37:42Z</time>
      </trkpt>
      <trkpt lat="49.42163" lon="0.23291">
        <ele>73.9595</ele>
        <time>2019-11-16T12:37:42Z</time>
      </trkpt>
      <trkpt lat="49.42164" lon="0.23298">
        <ele>73.9632</ele>
        <time>2019-11-16T11:44:03Z</time>
      </trkpt>
      <trkpt lat="49.4217" lon="0.23312">
        <ele>56.7076</ele>
        <time>2019-11-16T11:44:03Z</time>
      </trkpt>
      <trkpt lat="49.4217" lon="0.23312">
        <ele>56.7076</ele>
        <time>2019-11-16T11:43:55Z</time>
      </trkpt>
      <trkpt lat="49.42149" lon="0.23284">
        <ele>12.3</ele>
        <time>2019-11-16T11:43:52Z</time>
      </trkpt>
      <trkpt lat="49.42149" lon="0.23284">
        <ele>12.3</ele>
        <time>2019-11-16T11:19:35Z</time>
      </trkpt>
      <trkpt lat="49.42149" lon="0.23284">
        <ele>12.3</ele>
        <time>2019-11-16T11:17:14Z</time>
      </trkpt>
      <trkpt lat="49.42149" lon="0.23284">
        <ele>12.3</ele>
        <time>2019-11-16T11:17:07Z</time>
      </trkpt>
      <trkpt lat="49.42149" lon="0.23289">
        <ele>64.8424</ele>
        <time>2019-11-16T11:16:39Z</time>
      </trkpt>
      <trkpt lat="49.42158" lon="0.23326">
        <ele>57.9736</ele>
        <time>2019-11-16T11:15:43Z</time>
      </trkpt>
      <trkpt lat="49.42158" lon="0.23326">
        <ele>57.9736</ele>
        <time>2019-11-16T11:15:35Z</time>
      </trkpt>
      <trkpt lat="49.42155" lon="0.23318">
        <ele>57.9437</ele>
        <time>2019-11-16T11:15:30Z</time>
      </trkpt>
      <trkpt lat="49.42163" lon="0.23277">
        <ele>12.9</ele>
        <time>2019-11-16T11:15:26Z</time>
      </trkpt>
      <trkpt lat="49.42163" lon="0.23277">
        <ele>12.9</ele>
        <time>2019-11-16T11:15:22Z</time>
      </trkpt>
      <trkpt lat="49.42163" lon="0.23277">
        <ele>12.9</ele>
        <time>2019-11-16T11:15:16Z</time>
      </trkpt>
      <trkpt lat="49.42162" lon="0.2328">
        <ele>57.8893</ele>
        <time>2019-11-16T11:15:16Z</time>
      </trkpt>
      <trkpt lat="49.42161" lon="0.23287">
        <ele>57.8733</ele>
        <time>2019-11-16T11:15:11Z</time>
      </trkpt>
      <trkpt lat="49.42157" lon="0.23292">
        <ele>57.8574</ele>
        <time>2019-11-16T11:15:04Z</time>
      </trkpt>
      <trkpt lat="49.42155" lon="0.23298">
        <ele>57.8369</ele>
        <time>2019-11-16T11:15:01Z</time>
      </trkpt>
      <trkpt lat="49.4215" lon="0.23312">
        <ele>11.5</ele>
        <time>2019-11-16T11:14:58Z</time>
      </trkpt>
      <trkpt lat="49.4215" lon="0.23312">
        <ele>11.5</ele>
        <time>2019-11-16T11:14:54Z</time>
      </trkpt>
      <trkpt lat="49.4215" lon="0.23312">
        <ele>11.5</ele>
        <time>2019-11-16T11:14:51Z</time>
      </trkpt>
      <trkpt lat="49.42148" lon="0.23315">
        <ele>57.8314</ele>
        <time>2019-11-16T11:14:48Z</time>
      </trkpt>
      <trkpt lat="49.42146" lon="0.23319">
        <ele>57.8361</ele>
        <time>2019-11-16T11:14:43Z</time>
      </trkpt>
      <trkpt lat="49.42143" lon="0.23323">
        <ele>57.8437</ele>
        <time>2019-11-16T11:14:37Z</time>
      </trkpt>
      <trkpt lat="49.42141" lon="0.23326">
        <ele>57.8498</ele>
        <time>2019-11-16T11:14:31Z</time>
      </trkpt>
      <trkpt lat="49.42138" lon="0.2333">
        <ele>57.8564</ele>
        <time>2019-11-16T11:14:24Z</time>
      </trkpt>
      <trkpt lat="49.42133" lon="0.23335">
        <ele>57.8673</ele>
        <time>2019-11-16T11:14:20Z</time>
      </trkpt>
      <trkpt lat="49.42128" lon="0.23337">
        <ele>57.89</ele>
        <time>2019-11-16T11:14:17Z</time>
      </trkpt>
      <trkpt lat="49.42124" lon="0.23341">
        <ele>57.9007</ele>
        <time>2019-11-16T11:14:13Z</time>
      </trkpt>
      <trkpt lat="49.42119" lon="0.23343">
        <ele>57.8939</ele>
        <time>2019-11-16T11:14:09Z</time>
      </trkpt>
      <trkpt lat="49.42115" lon="0.2334">
        <ele>57.8823</ele>
        <time>2019-11-16T11:14:06Z</time>
      </trkpt>
      <trkpt lat="49.42112" lon="0.23338">
        <ele>57.872</ele>
        <time>2019-11-16T11:14:03Z</time>
      </trkpt>
      <trkpt lat="49.42108" lon="0.23333">
        <ele>57.8613</ele>
        <time>2019-11-16T11:13:59Z</time>
      </trkpt>
      <trkpt lat="49.42105" lon="0.23327">
        <ele>57.8545</ele>
        <time>2019-11-16T11:13:57Z</time>
      </trkpt>
      <trkpt lat="49.42102" lon="0.23323">
        <ele>57.8514</ele>
        <time>2019-11-16T11:13:53Z</time>
      </trkpt>
      <trkpt lat="49.42099" lon="0.23318">
        <ele>57.8506</ele>
        <time>2019-11-16T11:13:51Z</time>
      </trkpt>
      <trkpt lat="49.42094" lon="0.23314">
        <ele>57.8544</ele>
        <time>2019-11-16T11:13:48Z</time>
      </trkpt>
      <trkpt lat="49.42092" lon="0.23311">
        <ele>57.8586</ele>
        <time>2019-11-16T11:13:43Z</time>
      </trkpt>
      <trkpt lat="49.42088" lon="0.23306">
        <ele>57.8698</ele>
        <time>2019-11-16T11:13:37Z</time>
      </trkpt>
      <trkpt lat="49.42087" lon="0.23302">
        <ele>57.8759</ele>
        <time>2019-11-16T11:13:21Z</time>
      </trkpt>
      <trkpt lat="49.42084" lon="0.23296">
        <ele>57.8851</ele>
        <time>2019-11-16T11:13:13Z</time>
      </trkpt>
      <trkpt lat="49.4208" lon="0.23293">
        <ele>57.8993</ele>
        <time>2019-11-16T11:13:07Z</time>
      </trkpt>
      <trkpt lat="49.42078" lon="0.23286">
        <ele>57.908</ele>
        <time>2019-11-16T11:12:56Z</time>
      </trkpt>
      <trkpt lat="49.42075" lon="0.23279">
        <ele>57.894</ele>
        <time>2019-11-16T11:12:49Z</time>
      </trkpt>
      <trkpt lat="49.4207" lon="0.23278">
        <ele>57.865</ele>
        <time>2019-11-16T11:12:43Z</time>
      </trkpt>
      <trkpt lat="49.42068" lon="0.23281">
        <ele>57.8414</ele>
        <time>2019-11-16T11:12:41Z</time>
      </trkpt>
      <trkpt lat="49.42064" lon="0.23285">
        <ele>57.8102</ele>
        <time>2019-11-16T11:12:38Z</time>
      </trkpt>
      <trkpt lat="49.4206" lon="0.23282">
        <ele>57.7806</ele>
        <time>2019-11-16T11:12:33Z</time>
      </trkpt>
      <trkpt lat="49.42055" lon="0.23279">
        <ele>57.7478</ele>
        <time>2019-11-16T11:12:27Z</time>
      </trkpt>
      <trkpt lat="49.42052" lon="0.23277">
        <ele>57.7355</ele>
        <time>2019-11-16T11:12:26Z</time>
      </trkpt>
      <trkpt lat="49.42049" lon="0.23274">
        <ele>57.7138</ele>
        <time>2019-11-16T11:12:00Z</time>
      </trkpt>
      <trkpt lat="49.42044" lon="0.23271">
        <ele>57.6712</ele>
        <time>2019-11-16T11:11:52Z</time>
      </trkpt>
      <trkpt lat="49.42038" lon="0.23269">
        <ele>57.6125</ele>
        <time>2019-11-16T11:11:50Z</time>
      </trkpt>
      <trkpt lat="49.42022" lon="0.23252">
        <ele>10.4</ele>
        <time>2019-11-16T11:11:46Z</time>
      </trkpt>
      <trkpt lat="49.42022" lon="0.23252">
        <ele>10.4</ele>
        <time>2019-11-16T11:11:43Z</time>
      </trkpt>
      <trkpt lat="49.42022" lon="0.23252">
        <ele>10.4</ele>
        <time>2019-11-16T11:11:41Z</time>
      </trkpt>
      <trkpt lat="49.4202" lon="0.2325">
        <ele>57.2463</ele>
        <time>2019-11-16T11:11:39Z</time>
      </trkpt>
      <trkpt lat="49.42015" lon="0.23246">
        <ele>57.1735</ele>
        <time>2019-11-16T11:11:36Z</time>
      </trkpt>
      <trkpt lat="49.42011" lon="0.23244">
        <ele>57.1159</ele>
        <time>2019-11-16T11:11:32Z</time>
      </trkpt>
      <trkpt lat="49.42008" lon="0.23242">
        <ele>57.0757</ele>
        <time>2019-11-16T11:11:30Z</time>
      </trkpt>
      <trkpt lat="49.42006" lon="0.23241">
        <ele>57.0344</ele>
        <time>2019-11-16T11:11:27Z</time>
      </trkpt>
      <trkpt lat="49.42003" lon="0.23239">
        <ele>56.9701</ele>
        <time>2019-11-16T11:11:25Z</time>
      </trkpt>
      <trkpt lat="49.41998" lon="0.23235">
        <ele>56.8798</ele>
        <time>2019-11-16T11:11:21Z</time>
      </trkpt>
      <trkpt lat="49.41996" lon="0.23233">
        <ele>56.8335</ele>
        <time>2019-11-16T11:11:17Z</time>
      </trkpt>
      <trkpt lat="49.41993" lon="0.2323">
        <ele>56.763</ele>
        <time>2019-11-16T11:11:14Z</time>
      </trkpt>
      <trkpt lat="49.4199" lon="0.23228">
        <ele>56.7154</ele>
        <time>2019-11-16T11:11:13Z</time>
      </trkpt>
      <trkpt lat="49.41986" lon="0.23224">
        <ele>56.6187</ele>
        <time>2019-11-16T11:11:09Z</time>
      </trkpt>
      <trkpt lat="49.41981" lon="0.2322">
        <ele>56.5184</ele>
        <time>2019-11-16T11:11:05Z</time>
      </trkpt>
      <trkpt lat="49.41975" lon="0.2322">
        <ele>56.4416</ele>
        <time>2019-11-16T11:11:05Z</time>
      </trkpt>
      <trkpt lat="49.41972" lon="0.2322">
        <ele>56.4158</ele>
        <time>2019-11-16T11:10:01Z</time>
      </trkpt>
      <trkpt lat="49.41966" lon="0.23222">
        <ele>56.3103</ele>
        <time>2019-11-16T11:09:53Z</time>
      </trkpt>
      <trkpt lat="49.41962" lon="0.23227">
        <ele>56.2009</ele>
        <time>2019-11-16T11:09:49Z</time>
      </trkpt>
      <trkpt lat="49.41946" lon="0.23261">
        <ele>10.7</ele>
        <time>2019-11-16T11:09:49Z</time>
      </trkpt>
      <trkpt lat="49.41946" lon="0.23261">
        <ele>10.7</ele>
        <time>2019-11-16T11:09:15Z</time>
      </trkpt>
      <trkpt lat="49.41946" lon="0.23261">
        <ele>10.7</ele>
        <time>2019-11-16T11:09:08Z</time>
      </trkpt>
      <trkpt lat="49.41946" lon="0.23268">
        <ele>55.3492</ele>
        <time>2019-11-16T11:09:05Z</time>
      </trkpt>
      <trkpt lat="49.41936" lon="0.23306">
        <ele>10.2</ele>
        <time>2019-11-16T11:09:03Z</time>
      </trkpt>
      <trkpt lat="49.41936" lon="0.23306">
        <ele>10.2</ele>
        <time>2019-11-16T11:09:02Z</time>
      </trkpt>
      <trkpt lat="49.41936" lon="0.23306">
        <ele>10.2</ele>
        <time>2019-11-16T11:08:50Z</time>
      </trkpt>
      <trkpt lat="49.41939" lon="0.23309">
        <ele>54.9537</ele>
        <time>2019-11-16T11:08:50Z</time>
      </trkpt>
      <trkpt lat="49.41941" lon="0.23311">
        <ele>54.9383</ele>
        <time>2019-11-16T11:08:42Z</time>
      </trkpt>
      <trkpt lat="49.41955" lon="0.23328">
        <ele>9.6</ele>
        <time>2019-11-16T11:08:36Z</time>
      </trkpt>
      <trkpt lat="49.41955" lon="0.23328">
        <ele>9.6</ele>
        <time>2019-11-16T11:08:33Z</time>
      </trkpt>
      <trkpt lat="49.41955" lon="0.23328">
        <ele>9.6</ele>
        <time>2019-11-16T11:08:28Z</time>
      </trkpt>
      <trkpt lat="49.41955" lon="0.23328">
        <ele>9.6</ele>
        <time>2019-11-16T11:08:23Z</time>
      </trkpt>
      <trkpt lat="49.41959" lon="0.23332">
        <ele>54.7803</ele>
        <time>2019-11-16T11:08:21Z</time>
      </trkpt>
      <trkpt lat="49.41962" lon="0.23334">
        <ele>54.7632</ele>
        <time>2019-11-16T11:08:19Z</time>
      </trkpt>
      <trkpt lat="49.41967" lon="0.23337">
        <ele>54.7342</ele>
        <time>2019-11-16T11:08:16Z</time>
      </trkpt>
      <trkpt lat="49.41971" lon="0.2334">
        <ele>54.704</ele>
        <time>2019-11-16T11:08:12Z</time>
      </trkpt>
      <trkpt lat="49.41973" lon="0.23342">
        <ele>54.6917</ele>
        <time>2019-11-16T11:08:09Z</time>
      </trkpt>
      <trkpt lat="49.41975" lon="0.23345">
        <ele>54.6801</ele>
        <time>2019-11-16T11:08:04Z</time>
      </trkpt>
      <trkpt lat="49.41977" lon="0.23348">
        <ele>54.6626</ele>
        <time>2019-11-16T11:07:59Z</time>
      </trkpt>
      <trkpt lat="49.4198" lon="0.23352">
        <ele>54.6382</ele>
        <time>2019-11-16T11:07:57Z</time>
      </trkpt>
      <trkpt lat="49.41983" lon="0.23356">
        <ele>54.6193</ele>
        <time>2019-11-16T11:07:51Z</time>
      </trkpt>
      <trkpt lat="49.41988" lon="0.2336">
        <ele>54.5856</ele>
        <time>2019-11-16T11:07:46Z</time>
      </trkpt>
      <trkpt lat="49.41991" lon="0.23366">
        <ele>54.5533</ele>
        <time>2019-11-16T11:07:42Z</time>
      </trkpt>
      <trkpt lat="49.41993" lon="0.23367">
        <ele>54.5413</ele>
        <time>2019-11-16T11:07:39Z</time>
      </trkpt>
      <trkpt lat="49.41998" lon="0.23371">
        <ele>54.5057</ele>
        <time>2019-11-16T11:07:35Z</time>
      </trkpt>
      <trkpt lat="49.42004" lon="0.23373">
        <ele>54.476</ele>
        <time>2019-11-16T11:07:35Z</time>
      </trkpt>
      <trkpt lat="49.42008" lon="0.23378">
        <ele>54.4535</ele>
        <time>2019-11-16T11:07:16Z</time>
      </trkpt>
      <trkpt lat="49.42009" lon="0.23381">
        <ele>54.4371</ele>
        <time>2019-11-16T11:07:09Z</time>
      </trkpt>
      <trkpt lat="49.42014" lon="0.23386">
        <ele>54.414</ele>
        <time>2019-11-16T11:07:06Z</time>
      </trkpt>
      <trkpt lat="49.42033" lon="0.23404">
        <ele>7.3</ele>
        <time>2019-11-16T11:07:01Z</time>
      </trkpt>
      <trkpt lat="49.42033" lon="0.23404">
        <ele>7.3</ele>
        <time>2019-11-16T11:06:57Z</time>
      </trkpt>
      <trkpt lat="49.42033" lon="0.23404">
        <ele>7.3</ele>
        <time>2019-11-16T11:06:52Z</time>
      </trkpt>
      <trkpt lat="49.4203" lon="0.23409">
        <ele>54.1849</ele>
        <time>2019-11-16T11:06:48Z</time>
      </trkpt>
      <trkpt lat="49.42027" lon="0.23414">
        <ele>54.1385</ele>
        <time>2019-11-16T11:06:44Z</time>
      </trkpt>
      <trkpt lat="49.42025" lon="0.2342">
        <ele>54.1001</ele>
        <time>2019-11-16T11:06:37Z</time>
      </trkpt>
      <trkpt lat="49.42023" lon="0.23427">
        <ele>54.05</ele>
        <time>2019-11-16T11:06:35Z</time>
      </trkpt>
      <trkpt lat="49.42019" lon="0.23433">
        <ele>54.0089</ele>
        <time>2019-11-16T11:06:31Z</time>
      </trkpt>
      <trkpt lat="49.42014" lon="0.23436">
        <ele>53.9661</ele>
        <time>2019-11-16T11:06:27Z</time>
      </trkpt>
      <trkpt lat="49.4201" lon="0.23442">
        <ele>53.8858</ele>
        <time>2019-11-16T11:06:24Z</time>
      </trkpt>
      <trkpt lat="49.4201" lon="0.23445">
        <ele>53.8614</ele>
        <time>2019-11-16T11:06:19Z</time>
      </trkpt>
      <trkpt lat="49.42009" lon="0.23452">
        <ele>53.809</ele>
        <time>2019-11-16T11:06:09Z</time>
      </trkpt>
      <trkpt lat="49.42006" lon="0.2346">
        <ele>53.7531</ele>
        <time>2019-11-16T11:06:01Z</time>
      </trkpt>
      <trkpt lat="49.42003" lon="0.23464">
        <ele>53.7122</ele>
        <time>2019-11-16T11:05:58Z</time>
      </trkpt>
      <trkpt lat="49.42" lon="0.23467">
        <ele>53.6483</ele>
        <time>2019-11-16T11:05:53Z</time>
      </trkpt>
      <trkpt lat="49.41996" lon="0.2347">
        <ele>53.5473</ele>
        <time>2019-11-16T11:05:49Z</time>
      </trkpt>
      <trkpt lat="49.4199" lon="0.23474">
        <ele>53.4833</ele>
        <time>2019-11-16T11:05:42Z</time>
      </trkpt>
      <trkpt lat="49.41989" lon="0.23478">
        <ele>53.46</ele>
        <time>2019-11-16T11:05:39Z</time>
      </trkpt>
      <trkpt lat="49.41988" lon="0.23484">
        <ele>53.4186</ele>
        <time>2019-11-16T11:05:37Z</time>
      </trkpt>
      <trkpt lat="49.41985" lon="0.23492">
        <ele>53.3875</ele>
        <time>2019-11-16T11:05:36Z</time>
      </trkpt>
      <trkpt lat="49.41984" lon="0.235">
        <ele>53.3417</ele>
        <time>2019-11-16T11:05:34Z</time>
      </trkpt>
      <trkpt lat="49.41981" lon="0.23507">
        <ele>53.3258</ele>
        <time>2019-11-16T11:05:31Z</time>
      </trkpt>
      <trkpt lat="49.41977" lon="0.23505">
        <ele>53.3167</ele>
        <time>2019-11-16T11:05:27Z</time>
      </trkpt>
      <trkpt lat="49.41973" lon="0.23505">
        <ele>53.3125</ele>
        <time>2019-11-16T11:05:20Z</time>
      </trkpt>
      <trkpt lat="49.41969" lon="0.23506">
        <ele>53.306</ele>
        <time>2019-11-16T11:05:16Z</time>
      </trkpt>
      <trkpt lat="49.41965" lon="0.23514">
        <ele>53.2973</ele>
        <time>2019-11-16T11:05:13Z</time>
      </trkpt>
      <trkpt lat="49.41961" lon="0.2352">
        <ele>53.2841</ele>
        <time>2019-11-16T11:05:08Z</time>
      </trkpt>
      <trkpt lat="49.41955" lon="0.23525">
        <ele>53.2608</ele>
        <time>2019-11-16T11:05:08Z</time>
      </trkpt>
      <trkpt lat="49.41952" lon="0.2353">
        <ele>53.2442</ele>
        <time>2019-11-16T11:05:03Z</time>
      </trkpt>
      <trkpt lat="49.4195" lon="0.23533">
        <ele>53.2315</ele>
        <time>2019-11-16T11:04:55Z</time>
      </trkpt>
      <trkpt lat="49.41946" lon="0.23537">
        <ele>53.2106</ele>
        <time>2019-11-16T11:04:48Z</time>
      </trkpt>
      <trkpt lat="49.41936" lon="0.23543">
        <ele>7.7</ele>
        <time>2019-11-16T11:04:44Z</time>
      </trkpt>
      <trkpt lat="49.41936" lon="0.23543">
        <ele>7.7</ele>
        <time>2019-11-16T11:04:40Z</time>
      </trkpt>
      <trkpt lat="49.41936" lon="0.23543">
        <ele>7.7</ele>
        <time>2019-11-16T11:04:37Z</time>
      </trkpt>
      <trkpt lat="49.41932" lon="0.23553">
        <ele>53.2005</ele>
        <time>2019-11-16T11:04:34Z</time>
      </trkpt>
      <trkpt lat="49.41928" lon="0.23553">
        <ele>53.2065</ele>
        <time>2019-11-16T11:04:29Z</time>
      </trkpt>
      <trkpt lat="49.41923" lon="0.23551">
        <ele>53.214</ele>
        <time>2019-11-16T11:04:24Z</time>
      </trkpt>
      <trkpt lat="49.4192" lon="0.23551">
        <ele>53.2192</ele>
        <time>2019-11-16T11:04:21Z</time>
      </trkpt>
      <trkpt lat="49.41917" lon="0.2355">
        <ele>53.2238</ele>
        <time>2019-11-16T11:04:17Z</time>
      </trkpt>
      <trkpt lat="49.41912" lon="0.23549">
        <ele>53.2289</ele>
        <time>2019-11-16T11:04:15Z</time>
      </trkpt>
      <trkpt lat="49.41907" lon="0.23551">
        <ele>53.231</ele>
        <time>2019-11-16T11:04:11Z</time>
      </trkpt>
      <trkpt lat="49.41903" lon="0.2355">
        <ele>53.232</ele>
        <time>2019-11-16T11:04:09Z</time>
      </trkpt>
      <trkpt lat="49.41898" lon="0.2355">
        <ele>53.2334</ele>
        <time>2019-11-16T11:04:03Z</time>
      </trkpt>
      <trkpt lat="49.41895" lon="0.23551">
        <ele>53.2341</ele>
        <time>2019-11-16T11:03:57Z</time>
      </trkpt>
      <trkpt lat="49.41891" lon="0.23552">
        <ele>53.2349</ele>
        <time>2019-11-16T11:03:52Z</time>
      </trkpt>
      <trkpt lat="49.41888" lon="0.23552">
        <ele>53.2355</ele>
        <time>2019-11-16T11:03:48Z</time>
      </trkpt>
      <trkpt lat="49.41883" lon="0.23551">
        <ele>53.2392</ele>
        <time>2019-11-16T11:03:45Z</time>
      </trkpt>
      <trkpt lat="49.41881" lon="0.23544">
        <ele>53.2366</ele>
        <time>2019-11-16T11:02:18Z</time>
      </trkpt>
      <trkpt lat="49.41876" lon="0.23543">
        <ele>53.2299</ele>
        <time>2019-11-16T11:02:18Z</time>
      </trkpt>
      <trkpt lat="49.41872" lon="0.23539">
        <ele>53.2284</ele>
        <time>2019-11-16T11:02:10Z</time>
      </trkpt>
      <trkpt lat="49.4185" lon="0.23533">
        <ele>8</ele>
        <time>2019-11-16T11:02:07Z</time>
      </trkpt>
      <trkpt lat="49.4185" lon="0.23533">
        <ele>8</ele>
        <time>2019-11-16T11:02:01Z</time>
      </trkpt>
      <trkpt lat="49.4185" lon="0.23533">
        <ele>8</ele>
        <time>2019-11-16T11:01:55Z</time>
      </trkpt>
      <trkpt lat="49.4185" lon="0.23533">
        <ele>8</ele>
        <time>2019-11-16T11:01:52Z</time>
      </trkpt>
      <trkpt lat="49.41855" lon="0.23532">
        <ele>52.8851</ele>
        <time>2019-11-16T11:01:52Z</time>
      </trkpt>
      <trkpt lat="49.41858" lon="0.23533">
        <ele>52.8451</ele>
        <time>2019-11-16T11:01:45Z</time>
      </trkpt>
      <trkpt lat="49.41863" lon="0.23535">
        <ele>52.7698</ele>
        <time>2019-11-16T11:01:40Z</time>
      </trkpt>
      <trkpt lat="49.41865" lon="0.23535">
        <ele>52.731</ele>
        <time>2019-11-16T11:01:35Z</time>
      </trkpt>
      <trkpt lat="49.41873" lon="0.23543">
        <ele>8.2</ele>
        <time>2019-11-16T11:01:32Z</time>
      </trkpt>
      <trkpt lat="49.41873" lon="0.23543">
        <ele>8.2</ele>
        <time>2019-11-16T11:01:29Z</time>
      </trkpt>
      <trkpt lat="49.41873" lon="0.23543">
        <ele>8.2</ele>
        <time>2019-11-16T11:01:27Z</time>
      </trkpt>
      <trkpt lat="49.41877" lon="0.23548">
        <ele>52.5417</ele>
        <time>2019-11-16T11:01:18Z</time>
      </trkpt>
      <trkpt lat="49.41882" lon="0.2355">
        <ele>52.513</ele>
        <time>2019-11-16T11:01:05Z</time>
      </trkpt>
      <trkpt lat="49.41883" lon="0.2356">
        <ele>52.4839</ele>
        <time>2019-11-16T11:00:57Z</time>
      </trkpt>
      <trkpt lat="49.41883" lon="0.23565">
        <ele>52.4662</ele>
        <time>2019-11-16T11:00:52Z</time>
      </trkpt>
      <trkpt lat="49.41883" lon="0.23577">
        <ele>52.4003</ele>
        <time>2019-11-16T11:00:46Z</time>
      </trkpt>
      <trkpt lat="49.41885" lon="0.23584">
        <ele>52.316</ele>
        <time>2019-11-16T11:00:42Z</time>
      </trkpt>
      <trkpt lat="49.41889" lon="0.23587">
        <ele>52.209</ele>
        <time>2019-11-16T11:00:39Z</time>
      </trkpt>
      <trkpt lat="49.41894" lon="0.23589">
        <ele>52.1192</ele>
        <time>2019-11-16T11:00:35Z</time>
      </trkpt>
      <trkpt lat="49.41897" lon="0.23595">
        <ele>52.0005</ele>
        <time>2019-11-16T11:00:04Z</time>
      </trkpt>
      <trkpt lat="49.41895" lon="0.23602">
        <ele>51.9248</ele>
        <time>2019-11-16T11:00:00Z</time>
      </trkpt>
      <trkpt lat="49.41895" lon="0.23607">
        <ele>51.8708</ele>
        <time>2019-11-16T10:59:56Z</time>
      </trkpt>
      <trkpt lat="49.41894" lon="0.23614">
        <ele>51.8033</ele>
        <time>2019-11-16T10:59:53Z</time>
      </trkpt>
      <trkpt lat="49.41905" lon="0.23617">
        <ele>51.4981</ele>
        <time>2019-11-16T10:59:49Z</time>
      </trkpt>
      <trkpt lat="49.41908" lon="0.23616">
        <ele>51.4067</ele>
        <time>2019-11-16T10:59:45Z</time>
      </trkpt>
      <trkpt lat="49.41913" lon="0.23615">
        <ele>51.316</ele>
        <time>2019-11-16T10:59:43Z</time>
      </trkpt>
      <trkpt lat="49.41918" lon="0.23612">
        <ele>51.2508</ele>
        <time>2019-11-16T10:59:39Z</time>
      </trkpt>
      <trkpt lat="49.41923" lon="0.23609">
        <ele>51.1684</ele>
        <time>2019-11-16T10:59:36Z</time>
      </trkpt>
      <trkpt lat="49.41929" lon="0.23611">
        <ele>51.0936</ele>
        <time>2019-11-16T10:59:36Z</time>
      </trkpt>
      <trkpt lat="49.41931" lon="0.23614">
        <ele>51.0589</ele>
        <time>2019-11-16T10:59:25Z</time>
      </trkpt>
      <trkpt lat="49.41935" lon="0.2362">
        <ele>50.9979</ele>
        <time>2019-11-16T10:59:17Z</time>
      </trkpt>
      <trkpt lat="49.4194" lon="0.23622">
        <ele>50.9563</ele>
        <time>2019-11-16T10:59:13Z</time>
      </trkpt>
      <trkpt lat="49.4194" lon="0.23603">
        <ele>6.2</ele>
        <time>2019-11-16T10:59:13Z</time>
      </trkpt>
      <trkpt lat="49.4194" lon="0.23603">
        <ele>6.2</ele>
        <time>2019-11-16T10:59:07Z</time>
      </trkpt>
      <trkpt lat="49.4194" lon="0.23603">
        <ele>6.2</ele>
        <time>2019-11-16T10:59:00Z</time>
      </trkpt>
      <trkpt lat="49.41945" lon="0.23602">
        <ele>50.6411</ele>
        <time>2019-11-16T10:58:56Z</time>
      </trkpt>
      <trkpt lat="49.41957" lon="0.23604">
        <ele>5.8</ele>
        <time>2019-11-16T10:58:52Z</time>
      </trkpt>
      <trkpt lat="49.41957" lon="0.23604">
        <ele>5.8</ele>
        <time>2019-11-16T10:58:50Z</time>
      </trkpt>
      <trkpt lat="49.41957" lon="0.23604">
        <ele>5.8</ele>
        <time>2019-11-16T10:58:47Z</time>
      </trkpt>
      <trkpt lat="49.41959" lon="0.23596">
        <ele>50.355</ele>
        <time>2019-11-16T10:58:44Z</time>
      </trkpt>
      <trkpt lat="49.41962" lon="0.2359">
        <ele>50.2736</ele>
        <time>2019-11-16T10:58:41Z</time>
      </trkpt>
      <trkpt lat="49.41964" lon="0.23588">
        <ele>50.2302</ele>
        <time>2019-11-16T10:58:36Z</time>
      </trkpt>
      <trkpt lat="49.41968" lon="0.23584">
        <ele>50.1612</ele>
        <time>2019-11-16T10:58:31Z</time>
      </trkpt>
      <trkpt lat="49.41973" lon="0.23577">
        <ele>50.0881</ele>
        <time>2019-11-16T10:58:26Z</time>
      </trkpt>
      <trkpt lat="49.41972" lon="0.23573">
        <ele>50.0152</ele>
        <time>2019-11-16T10:58:22Z</time>
      </trkpt>
      <trkpt lat="49.4197" lon="0.23565">
        <ele>49.8918</ele>
        <time>2019-11-16T10:58:19Z</time>
      </trkpt>
      <trkpt lat="49.41971" lon="0.23558">
        <ele>49.7576</ele>
        <time>2019-11-16T10:58:18Z</time>
      </trkpt>
      <trkpt lat="49.41976" lon="0.23552">
        <ele>49.6216</ele>
        <time>2019-11-16T10:58:11Z</time>
      </trkpt>
      <trkpt lat="49.41981" lon="0.23546">
        <ele>49.5238</ele>
        <time>2019-11-16T10:58:08Z</time>
      </trkpt>
      <trkpt lat="49.41985" lon="0.2354">
        <ele>49.4509</ele>
        <time>2019-11-16T10:58:04Z</time>
      </trkpt>
      <trkpt lat="49.41987" lon="0.23538">
        <ele>49.4268</ele>
        <time>2019-11-16T10:58:02Z</time>
      </trkpt>
      <trkpt lat="49.41991" lon="0.23533">
        <ele>49.2585</ele>
        <time>2019-11-16T10:57:57Z</time>
      </trkpt>
      <trkpt lat="49.41993" lon="0.23529">
        <ele>49.1836</ele>
        <time>2019-11-16T10:57:55Z</time>
      </trkpt>
      <trkpt lat="49.41995" lon="0.23523">
        <ele>49.0791</ele>
        <time>2019-11-16T10:57:53Z</time>
      </trkpt>
      <trkpt lat="49.41999" lon="0.23518">
        <ele>49.0263</ele>
        <time>2019-11-16T10:57:50Z</time>
      </trkpt>
      <trkpt lat="49.42002" lon="0.23512">
        <ele>48.8952</ele>
        <time>2019-11-16T10:57:48Z</time>
      </trkpt>
      <trkpt lat="49.42003" lon="0.2351">
        <ele>48.8418</ele>
        <time>2019-11-16T10:57:46Z</time>
      </trkpt>
      <trkpt lat="49.42005" lon="0.23507">
        <ele>48.788</ele>
        <time>2019-11-16T10:57:44Z</time>
      </trkpt>
      <trkpt lat="49.42008" lon="0.23502">
        <ele>48.706</ele>
        <time>2019-11-16T10:57:41Z</time>
      </trkpt>
      <trkpt lat="49.42011" lon="0.23498">
        <ele>48.6501</ele>
        <time>2019-11-16T10:57:37Z</time>
      </trkpt>
      <trkpt lat="49.42014" lon="0.23495">
        <ele>48.5939</ele>
        <time>2019-11-16T10:57:35Z</time>
      </trkpt>
      <trkpt lat="49.42017" lon="0.23492">
        <ele>48.5372</ele>
        <time>2019-11-16T10:57:31Z</time>
      </trkpt>
      <trkpt lat="49.42021" lon="0.23488">
        <ele>48.4546</ele>
        <time>2019-11-16T10:57:29Z</time>
      </trkpt>
      <trkpt lat="49.42025" lon="0.23482">
        <ele>48.3461</ele>
        <time>2019-11-16T10:57:27Z</time>
      </trkpt>
      <trkpt lat="49.42028" lon="0.2348">
        <ele>48.2908</ele>
        <time>2019-11-16T10:57:26Z</time>
      </trkpt>
      <trkpt lat="49.42032" lon="0.23476">
        <ele>48.1769</ele>
        <time>2019-11-16T10:57:24Z</time>
      </trkpt>
      <trkpt lat="49.42035" lon="0.23473">
        <ele>48.1193</ele>
        <time>2019-11-16T10:57:21Z</time>
      </trkpt>
      <trkpt lat="49.42039" lon="0.23469">
        <ele>48.0621</ele>
        <time>2019-11-16T10:57:17Z</time>
      </trkpt>
      <trkpt lat="49.4204" lon="0.23467">
        <ele>48.0339</ele>
        <time>2019-11-16T10:57:15Z</time>
      </trkpt>
      <trkpt lat="49.42043" lon="0.23465">
        <ele>47.9787</ele>
        <time>2019-11-16T10:57:13Z</time>
      </trkpt>
      <trkpt lat="49.42048" lon="0.2346">
        <ele>47.8976</ele>
        <time>2019-11-16T10:57:10Z</time>
      </trkpt>
      <trkpt lat="49.42052" lon="0.23453">
        <ele>47.7985</ele>
        <time>2019-11-16T10:57:08Z</time>
      </trkpt>
      <trkpt lat="49.42055" lon="0.23449">
        <ele>47.7546</ele>
        <time>2019-11-16T10:57:05Z</time>
      </trkpt>
      <trkpt lat="49.42057" lon="0.23446">
        <ele>47.7144</ele>
        <time>2019-11-16T10:57:01Z</time>
      </trkpt>
      <trkpt lat="49.4206" lon="0.23442">
        <ele>47.6579</ele>
        <time>2019-11-16T10:56:59Z</time>
      </trkpt>
      <trkpt lat="49.42063" lon="0.23439">
        <ele>47.6211</ele>
        <time>2019-11-16T10:56:55Z</time>
      </trkpt>
      <trkpt lat="49.42068" lon="0.23436">
        <ele>47.5704</ele>
        <time>2019-11-16T10:56:51Z</time>
      </trkpt>
      <trkpt lat="49.42073" lon="0.23432">
        <ele>47.5143</ele>
        <time>2019-11-16T10:56:47Z</time>
      </trkpt>
      <trkpt lat="49.42074" lon="0.23429">
        <ele>47.491</ele>
        <time>2019-11-16T10:56:43Z</time>
      </trkpt>
      <trkpt lat="49.42078" lon="0.23424">
        <ele>47.4495</ele>
        <time>2019-11-16T10:56:37Z</time>
      </trkpt>
      <trkpt lat="49.42082" lon="0.2342">
        <ele>47.4101</ele>
        <time>2019-11-16T10:56:34Z</time>
      </trkpt>
      <trkpt lat="49.42087" lon="0.23413">
        <ele>47.369</ele>
        <time>2019-11-16T10:56:32Z</time>
      </trkpt>
      <trkpt lat="49.42089" lon="0.23406">
        <ele>47.3419</ele>
        <time>2019-11-16T10:56:27Z</time>
      </trkpt>
      <trkpt lat="49.42091" lon="0.23401">
        <ele>47.3229</ele>
        <time>2019-11-16T10:56:23Z</time>
      </trkpt>
      <trkpt lat="49.42095" lon="0.23395">
        <ele>47.3074</ele>
        <time>2019-11-16T10:56:20Z</time>
      </trkpt>
      <trkpt lat="49.42096" lon="0.23391">
        <ele>47.2973</ele>
        <time>2019-11-16T10:56:17Z</time>
      </trkpt>
      <trkpt lat="49.42098" lon="0.23384">
        <ele>47.286</ele>
        <time>2019-11-16T10:56:13Z</time>
      </trkpt>
      <trkpt lat="49.42102" lon="0.2338">
        <ele>47.2889</ele>
        <time>2019-11-16T10:56:08Z</time>
      </trkpt>
      <trkpt lat="49.42107" lon="0.23375">
        <ele>47.2812</ele>
        <time>2019-11-16T10:55:42Z</time>
      </trkpt>
      <trkpt lat="49.4211" lon="0.23369">
        <ele>47.2657</ele>
        <time>2019-11-16T10:55:38Z</time>
      </trkpt>
      <trkpt lat="49.4212" lon="0.23365">
        <ele>47.2529</ele>
        <time>2019-11-16T10:55:34Z</time>
      </trkpt>
      <trkpt lat="49.42121" lon="0.23361">
        <ele>47.2388</ele>
        <time>2019-11-16T10:55:30Z</time>
      </trkpt>
      <trkpt lat="49.4213" lon="0.23359">
        <ele>47.1743</ele>
        <time>2019-11-16T10:55:26Z</time>
      </trkpt>
      <trkpt lat="49.42132" lon="0.23361">
        <ele>47.1627</ele>
        <time>2019-11-16T10:55:22Z</time>
      </trkpt>
      <trkpt lat="49.42137" lon="0.23364">
        <ele>47.1494</ele>
        <time>2019-11-16T10:55:20Z</time>
      </trkpt>
      <trkpt lat="49.4214" lon="0.23369">
        <ele>47.1358</ele>
        <time>2019-11-16T10:55:17Z</time>
      </trkpt>
      <trkpt lat="49.42143" lon="0.23374">
        <ele>47.1241</ele>
        <time>2019-11-16T10:55:15Z</time>
      </trkpt>
      <trkpt lat="49.42147" lon="0.23377">
        <ele>47.1109</ele>
        <time>2019-11-16T10:55:12Z</time>
      </trkpt>
      <trkpt lat="49.42148" lon="0.2338">
        <ele>47.1042</ele>
        <time>2019-11-16T10:55:08Z</time>
      </trkpt>
      <trkpt lat="49.42151" lon="0.23384">
        <ele>47.0954</ele>
        <time>2019-11-16T10:55:03Z</time>
      </trkpt>
      <trkpt lat="49.42152" lon="0.23387">
        <ele>47.0897</ele>
        <time>2019-11-16T10:55:01Z</time>
      </trkpt>
      <trkpt lat="49.42154" lon="0.2339">
        <ele>47.0811</ele>
        <time>2019-11-16T10:54:56Z</time>
      </trkpt>
      <trkpt lat="49.42157" lon="0.23396">
        <ele>47.071</ele>
        <time>2019-11-16T10:54:52Z</time>
      </trkpt>
      <trkpt lat="49.42162" lon="0.234">
        <ele>47.0617</ele>
        <time>2019-11-16T10:54:49Z</time>
      </trkpt>
      <trkpt lat="49.42164" lon="0.23403">
        <ele>47.0591</ele>
        <time>2019-11-16T10:54:45Z</time>
      </trkpt>
      <trkpt lat="49.42168" lon="0.23408">
        <ele>47.0554</ele>
        <time>2019-11-16T10:54:43Z</time>
      </trkpt>
      <trkpt lat="49.42173" lon="0.23412">
        <ele>47.0546</ele>
        <time>2019-11-16T10:54:41Z</time>
      </trkpt>
      <trkpt lat="49.42176" lon="0.23413">
        <ele>47.0537</ele>
        <time>2019-11-16T10:54:37Z</time>
      </trkpt>
      <trkpt lat="49.4218" lon="0.23414">
        <ele>47.0486</ele>
        <time>2019-11-16T10:54:34Z</time>
      </trkpt>
      <trkpt lat="49.42183" lon="0.23414">
        <ele>47.0441</ele>
        <time>2019-11-16T10:54:29Z</time>
      </trkpt>
      <trkpt lat="49.42185" lon="0.23414">
        <ele>47.0382</ele>
        <time>2019-11-16T10:54:24Z</time>
      </trkpt>
      <trkpt lat="49.42191" lon="0.23413">
        <ele>47.0205</ele>
        <time>2019-11-16T10:54:20Z</time>
      </trkpt>
      <trkpt lat="49.42194" lon="0.23412">
        <ele>47.0027</ele>
        <time>2019-11-16T10:54:15Z</time>
      </trkpt>
      <trkpt lat="49.42199" lon="0.2341">
        <ele>46.9716</ele>
        <time>2019-11-16T10:54:11Z</time>
      </trkpt>
      <trkpt lat="49.42204" lon="0.23404">
        <ele>46.937</ele>
        <time>2019-11-16T10:54:08Z</time>
      </trkpt>
      <trkpt lat="49.42208" lon="0.234">
        <ele>46.9024</ele>
        <time>2019-11-16T10:54:02Z</time>
      </trkpt>
      <trkpt lat="49.42212" lon="0.23395">
        <ele>46.851</ele>
        <time>2019-11-16T10:53:59Z</time>
      </trkpt>
      <trkpt lat="49.42215" lon="0.23388">
        <ele>46.8051</ele>
        <time>2019-11-16T10:53:54Z</time>
      </trkpt>
      <trkpt lat="49.42216" lon="0.23382">
        <ele>46.7683</ele>
        <time>2019-11-16T10:53:50Z</time>
      </trkpt>
      <trkpt lat="49.42218" lon="0.23374">
        <ele>46.686</ele>
        <time>2019-11-16T10:53:47Z</time>
      </trkpt>
      <trkpt lat="49.4222" lon="0.23371">
        <ele>46.6423</ele>
        <time>2019-11-16T10:53:43Z</time>
      </trkpt>
      <trkpt lat="49.42224" lon="0.23365">
        <ele>46.5704</ele>
        <time>2019-11-16T10:53:40Z</time>
      </trkpt>
      <trkpt lat="49.42225" lon="0.23361">
        <ele>46.5162</ele>
        <time>2019-11-16T10:53:37Z</time>
      </trkpt>
      <trkpt lat="49.42227" lon="0.23357">
        <ele>46.4763</ele>
        <time>2019-11-16T10:53:35Z</time>
      </trkpt>
      <trkpt lat="49.42229" lon="0.23351">
        <ele>46.4247</ele>
        <time>2019-11-16T10:53:33Z</time>
      </trkpt>
      <trkpt lat="49.42231" lon="0.23345">
        <ele>46.3865</ele>
        <time>2019-11-16T10:53:30Z</time>
      </trkpt>
      <trkpt lat="49.42235" lon="0.23339">
        <ele>46.3487</ele>
        <time>2019-11-16T10:53:27Z</time>
      </trkpt>
      <trkpt lat="49.42238" lon="0.23333">
        <ele>46.3271</ele>
        <time>2019-11-16T10:53:23Z</time>
      </trkpt>
      <trkpt lat="49.42241" lon="0.23329">
        <ele>46.3097</ele>
        <time>2019-11-16T10:53:21Z</time>
      </trkpt>
      <trkpt lat="49.42245" lon="0.23324">
        <ele>46.2856</ele>
        <time>2019-11-16T10:53:18Z</time>
      </trkpt>
      <trkpt lat="49.42247" lon="0.23319">
        <ele>46.2637</ele>
        <time>2019-11-16T10:53:14Z</time>
      </trkpt>
      <trkpt lat="49.4225" lon="0.23313">
        <ele>46.2376</ele>
        <time>2019-11-16T10:53:12Z</time>
      </trkpt>
      <trkpt lat="49.42251" lon="0.2331">
        <ele>46.226</ele>
        <time>2019-11-16T10:53:08Z</time>
      </trkpt>
      <trkpt lat="49.42254" lon="0.23306">
        <ele>46.2067</ele>
        <time>2019-11-16T10:53:05Z</time>
      </trkpt>
      <trkpt lat="49.42258" lon="0.23301">
        <ele>46.1775</ele>
        <time>2019-11-16T10:53:01Z</time>
      </trkpt>
      <trkpt lat="49.4226" lon="0.23298">
        <ele>46.1637</ele>
        <time>2019-11-16T10:52:58Z</time>
      </trkpt>
      <trkpt lat="49.42263" lon="0.23292">
        <ele>46.1423</ele>
        <time>2019-11-16T10:52:54Z</time>
      </trkpt>
      <trkpt lat="49.42268" lon="0.23289">
        <ele>46.1309</ele>
        <time>2019-11-16T10:52:51Z</time>
      </trkpt>
      <trkpt lat="49.42271" lon="0.23283">
        <ele>46.1228</ele>
        <time>2019-11-16T10:52:46Z</time>
      </trkpt>
      <trkpt lat="49.42275" lon="0.23276">
        <ele>46.1186</ele>
        <time>2019-11-16T10:52:42Z</time>
      </trkpt>
      <trkpt lat="49.42279" lon="0.23269">
        <ele>46.1137</ele>
        <time>2019-11-16T10:52:39Z</time>
      </trkpt>
      <trkpt lat="49.42282" lon="0.23265">
        <ele>46.1102</ele>
        <time>2019-11-16T10:52:32Z</time>
      </trkpt>
      <trkpt lat="49.42284" lon="0.23257">
        <ele>46.1052</ele>
        <time>2019-11-16T10:52:27Z</time>
      </trkpt>
      <trkpt lat="49.42287" lon="0.23251">
        <ele>46.105</ele>
        <time>2019-11-16T10:52:23Z</time>
      </trkpt>
      <trkpt lat="49.42292" lon="0.23248">
        <ele>46.1029</ele>
        <time>2019-11-16T10:52:19Z</time>
      </trkpt>
      <trkpt lat="49.42295" lon="0.23241">
        <ele>46.0977</ele>
        <time>2019-11-16T10:52:16Z</time>
      </trkpt>
      <trkpt lat="49.42297" lon="0.23236">
        <ele>46.1016</ele>
        <time>2019-11-16T10:52:12Z</time>
      </trkpt>
      <trkpt lat="49.42299" lon="0.23232">
        <ele>46.1089</ele>
        <time>2019-11-16T10:52:10Z</time>
      </trkpt>
      <trkpt lat="49.42301" lon="0.23225">
        <ele>46.12</ele>
        <time>2019-11-16T10:52:08Z</time>
      </trkpt>
      <trkpt lat="49.42304" lon="0.23221">
        <ele>46.1282</ele>
        <time>2019-11-16T10:52:04Z</time>
      </trkpt>
      <trkpt lat="49.42309" lon="0.23214">
        <ele>46.1438</ele>
        <time>2019-11-16T10:52:01Z</time>
      </trkpt>
      <trkpt lat="49.42311" lon="0.23211">
        <ele>46.1523</ele>
        <time>2019-11-16T10:51:59Z</time>
      </trkpt>
      <trkpt lat="49.42312" lon="0.23207">
        <ele>46.1608</ele>
        <time>2019-11-16T10:51:57Z</time>
      </trkpt>
      <trkpt lat="49.42316" lon="0.23202">
        <ele>46.1768</ele>
        <time>2019-11-16T10:51:54Z</time>
      </trkpt>
      <trkpt lat="49.42317" lon="0.23198">
        <ele>46.1858</ele>
        <time>2019-11-16T10:51:51Z</time>
      </trkpt>
      <trkpt lat="49.42318" lon="0.23196">
        <ele>46.1912</ele>
        <time>2019-11-16T10:51:47Z</time>
      </trkpt>
      <trkpt lat="49.42321" lon="0.23192">
        <ele>46.1958</ele>
        <time>2019-11-16T10:51:43Z</time>
      </trkpt>
      <trkpt lat="49.42324" lon="0.23186">
        <ele>46.2004</ele>
        <time>2019-11-16T10:51:41Z</time>
      </trkpt>
      <trkpt lat="49.42328" lon="0.2318">
        <ele>46.2027</ele>
        <time>2019-11-16T10:51:37Z</time>
      </trkpt>
      <trkpt lat="49.42332" lon="0.23171">
        <ele>46.2084</ele>
        <time>2019-11-16T10:51:35Z</time>
      </trkpt>
      <trkpt lat="49.42334" lon="0.23163">
        <ele>46.2107</ele>
        <time>2019-11-16T10:51:28Z</time>
      </trkpt>
      <trkpt lat="49.42336" lon="0.2316">
        <ele>46.2101</ele>
        <time>2019-11-16T10:51:21Z</time>
      </trkpt>
      <trkpt lat="49.42341" lon="0.23155">
        <ele>46.2066</ele>
        <time>2019-11-16T10:51:13Z</time>
      </trkpt>
      <trkpt lat="49.42343" lon="0.23153">
        <ele>46.2027</ele>
        <time>2019-11-16T10:51:11Z</time>
      </trkpt>
      <trkpt lat="49.42347" lon="0.23147">
        <ele>46.1698</ele>
        <time>2019-11-16T10:51:09Z</time>
      </trkpt>
      <trkpt lat="49.42347" lon="0.23139">
        <ele>46.1131</ele>
        <time>2019-11-16T10:51:04Z</time>
      </trkpt>
      <trkpt lat="49.42351" lon="0.23133">
        <ele>46.0563</ele>
        <time>2019-11-16T10:51:01Z</time>
      </trkpt>
      <trkpt lat="49.42353" lon="0.2313">
        <ele>46.0446</ele>
        <time>2019-11-16T10:50:57Z</time>
      </trkpt>
      <trkpt lat="49.42355" lon="0.23127">
        <ele>46.0336</ele>
        <time>2019-11-16T10:50:50Z</time>
      </trkpt>
      <trkpt lat="49.42358" lon="0.23122">
        <ele>46.0035</ele>
        <time>2019-11-16T10:50:46Z</time>
      </trkpt>
      <trkpt lat="49.4236" lon="0.23118">
        <ele>45.9861</ele>
        <time>2019-11-16T10:50:43Z</time>
      </trkpt>
      <trkpt lat="49.42362" lon="0.23112">
        <ele>45.9651</ele>
        <time>2019-11-16T10:50:39Z</time>
      </trkpt>
      <trkpt lat="49.42364" lon="0.23105">
        <ele>45.9422</ele>
        <time>2019-11-16T10:50:35Z</time>
      </trkpt>
      <trkpt lat="49.42367" lon="0.231">
        <ele>45.9346</ele>
        <time>2019-11-16T10:50:32Z</time>
      </trkpt>
      <trkpt lat="49.42368" lon="0.23097">
        <ele>45.9297</ele>
        <time>2019-11-16T10:50:28Z</time>
      </trkpt>
      <trkpt lat="49.4237" lon="0.23092">
        <ele>45.9243</ele>
        <time>2019-11-16T10:50:25Z</time>
      </trkpt>
      <trkpt lat="49.42373" lon="0.23087">
        <ele>45.9172</ele>
        <time>2019-11-16T10:50:23Z</time>
      </trkpt>
      <trkpt lat="49.42376" lon="0.23081">
        <ele>45.912</ele>
        <time>2019-11-16T10:50:20Z</time>
      </trkpt>
      <trkpt lat="49.42378" lon="0.23078">
        <ele>45.9062</ele>
        <time>2019-11-16T10:50:17Z</time>
      </trkpt>
      <trkpt lat="49.42379" lon="0.23075">
        <ele>45.9034</ele>
        <time>2019-11-16T10:50:13Z</time>
      </trkpt>
      <trkpt lat="49.42381" lon="0.23071">
        <ele>45.9014</ele>
        <time>2019-11-16T10:50:08Z</time>
      </trkpt>
      <trkpt lat="49.42384" lon="0.23065">
        <ele>45.8984</ele>
        <time>2019-11-16T10:50:03Z</time>
      </trkpt>
      <trkpt lat="49.42387" lon="0.23059">
        <ele>45.8955</ele>
        <time>2019-11-16T10:49:58Z</time>
      </trkpt>
      <trkpt lat="49.4239" lon="0.23052">
        <ele>45.8925</ele>
        <time>2019-11-16T10:49:55Z</time>
      </trkpt>
      <trkpt lat="49.42394" lon="0.23045">
        <ele>45.8882</ele>
        <time>2019-11-16T10:49:53Z</time>
      </trkpt>
      <trkpt lat="49.42397" lon="0.23037">
        <ele>45.883</ele>
        <time>2019-11-16T10:49:51Z</time>
      </trkpt>
      <trkpt lat="49.424" lon="0.23031">
        <ele>45.8771</ele>
        <time>2019-11-16T10:49:48Z</time>
      </trkpt>
      <trkpt lat="49.42403" lon="0.23027">
        <ele>45.8728</ele>
        <time>2019-11-16T10:49:45Z</time>
      </trkpt>
      <trkpt lat="49.42404" lon="0.23023">
        <ele>45.8711</ele>
        <time>2019-11-16T10:49:43Z</time>
      </trkpt>
      <trkpt lat="49.42407" lon="0.23019">
        <ele>45.8699</ele>
        <time>2019-11-16T10:49:40Z</time>
      </trkpt>
      <trkpt lat="49.4241" lon="0.23014">
        <ele>45.8693</ele>
        <time>2019-11-16T10:49:37Z</time>
      </trkpt>
      <trkpt lat="49.42413" lon="0.23009">
        <ele>45.8694</ele>
        <time>2019-11-16T10:49:35Z</time>
      </trkpt>
      <trkpt lat="49.42415" lon="0.23004">
        <ele>45.8702</ele>
        <time>2019-11-16T10:49:32Z</time>
      </trkpt>
      <trkpt lat="49.42417" lon="0.22998">
        <ele>45.874</ele>
        <time>2019-11-16T10:49:30Z</time>
      </trkpt>
      <trkpt lat="49.4242" lon="0.22994">
        <ele>45.8828</ele>
        <time>2019-11-16T10:49:25Z</time>
      </trkpt>
      <trkpt lat="49.42422" lon="0.22991">
        <ele>45.8917</ele>
        <time>2019-11-16T10:49:21Z</time>
      </trkpt>
      <trkpt lat="49.42426" lon="0.22984">
        <ele>45.909</ele>
        <time>2019-11-16T10:49:16Z</time>
      </trkpt>
      <trkpt lat="49.42428" lon="0.2298">
        <ele>45.9229</ele>
        <time>2019-11-16T10:49:10Z</time>
      </trkpt>
      <trkpt lat="49.42431" lon="0.22973">
        <ele>45.9598</ele>
        <time>2019-11-16T10:49:04Z</time>
      </trkpt>
      <trkpt lat="49.42436" lon="0.22969">
        <ele>45.988</ele>
        <time>2019-11-16T10:48:59Z</time>
      </trkpt>
      <trkpt lat="49.42439" lon="0.22963">
        <ele>46.0323</ele>
        <time>2019-11-16T10:48:55Z</time>
      </trkpt>
      <trkpt lat="49.42441" lon="0.22955">
        <ele>46.0858</ele>
        <time>2019-11-16T10:48:51Z</time>
      </trkpt>
      <trkpt lat="49.42445" lon="0.22953">
        <ele>46.1524</ele>
        <time>2019-11-16T10:48:46Z</time>
      </trkpt>
      <trkpt lat="49.42449" lon="0.22949">
        <ele>46.2158</ele>
        <time>2019-11-16T10:48:46Z</time>
      </trkpt>
      <trkpt lat="49.42451" lon="0.22943">
        <ele>46.2527</ele>
        <time>2019-11-16T10:48:39Z</time>
      </trkpt>
      <trkpt lat="49.42454" lon="0.22936">
        <ele>46.2775</ele>
        <time>2019-11-16T10:48:32Z</time>
      </trkpt>
      <trkpt lat="49.42457" lon="0.22929">
        <ele>46.3114</ele>
        <time>2019-11-16T10:48:29Z</time>
      </trkpt>
      <trkpt lat="49.42457" lon="0.22919">
        <ele>5.7</ele>
        <time>2019-11-16T10:48:27Z</time>
      </trkpt>
      <trkpt lat="49.42457" lon="0.22919">
        <ele>5.7</ele>
        <time>2019-11-16T10:48:25Z</time>
      </trkpt>
      <trkpt lat="49.42457" lon="0.22919">
        <ele>5.7</ele>
        <time>2019-11-16T10:48:21Z</time>
      </trkpt>
      <trkpt lat="49.42458" lon="0.22911">
        <ele>46.3697</ele>
        <time>2019-11-16T10:48:18Z</time>
      </trkpt>
      <trkpt lat="49.4246" lon="0.22903">
        <ele>46.3603</ele>
        <time>2019-11-16T10:48:15Z</time>
      </trkpt>
      <trkpt lat="49.42463" lon="0.22899">
        <ele>46.3457</ele>
        <time>2019-11-16T10:48:12Z</time>
      </trkpt>
      <trkpt lat="49.42467" lon="0.22894">
        <ele>46.3196</ele>
        <time>2019-11-16T10:48:09Z</time>
      </trkpt>
      <trkpt lat="49.42468" lon="0.22889">
        <ele>46.3026</ele>
        <time>2019-11-16T10:48:07Z</time>
      </trkpt>
      <trkpt lat="49.4247" lon="0.22881">
        <ele>46.2834</ele>
        <time>2019-11-16T10:48:02Z</time>
      </trkpt>
      <trkpt lat="49.42472" lon="0.22875">
        <ele>46.2671</ele>
        <time>2019-11-16T10:47:58Z</time>
      </trkpt>
      <trkpt lat="49.42474" lon="0.2287">
        <ele>46.2541</ele>
        <time>2019-11-16T10:47:55Z</time>
      </trkpt>
      <trkpt lat="49.42476" lon="0.22867">
        <ele>46.244</ele>
        <time>2019-11-16T10:47:53Z</time>
      </trkpt>
      <trkpt lat="49.42479" lon="0.22862">
        <ele>46.2155</ele>
        <time>2019-11-16T10:47:51Z</time>
      </trkpt>
      <trkpt lat="49.42484" lon="0.22862">
        <ele>46.1884</ele>
        <time>2019-11-16T10:47:49Z</time>
      </trkpt>
      <trkpt lat="49.42488" lon="0.22865">
        <ele>46.171</ele>
        <time>2019-11-16T10:47:45Z</time>
      </trkpt>
      <trkpt lat="49.42493" lon="0.22869">
        <ele>46.1619</ele>
        <time>2019-11-16T10:47:41Z</time>
      </trkpt>
      <trkpt lat="49.42497" lon="0.22873">
        <ele>46.1527</ele>
        <time>2019-11-16T10:47:37Z</time>
      </trkpt>
      <trkpt lat="49.42502" lon="0.22875">
        <ele>46.1422</ele>
        <time>2019-11-16T10:47:33Z</time>
      </trkpt>
      <trkpt lat="49.42505" lon="0.22883">
        <ele>46.1166</ele>
        <time>2019-11-16T10:47:32Z</time>
      </trkpt>
      <trkpt lat="49.42505" lon="0.22892">
        <ele>46.0922</ele>
        <time>2019-11-16T10:47:23Z</time>
      </trkpt>
      <trkpt lat="49.42509" lon="0.22899">
        <ele>46.0644</ele>
        <time>2019-11-16T10:47:20Z</time>
      </trkpt>
      <trkpt lat="49.4251" lon="0.22907">
        <ele>46.0398</ele>
        <time>2019-11-16T10:47:13Z</time>
      </trkpt>
      <trkpt lat="49.4251" lon="0.22915">
        <ele>46.0318</ele>
        <time>2019-11-16T10:47:11Z</time>
      </trkpt>
      <trkpt lat="49.42513" lon="0.22921">
        <ele>45.9624</ele>
        <time>2019-11-16T10:47:07Z</time>
      </trkpt>
      <trkpt lat="49.42517" lon="0.22926">
        <ele>45.9289</ele>
        <time>2019-11-16T10:46:59Z</time>
      </trkpt>
      <trkpt lat="49.42518" lon="0.22933">
        <ele>45.8522</ele>
        <time>2019-11-16T10:46:56Z</time>
      </trkpt>
      <trkpt lat="49.42522" lon="0.22938">
        <ele>45.8262</ele>
        <time>2019-11-16T10:46:51Z</time>
      </trkpt>
      <trkpt lat="49.42526" lon="0.22944">
        <ele>45.7712</ele>
        <time>2019-11-16T10:46:45Z</time>
      </trkpt>
      <trkpt lat="49.4253" lon="0.22952">
        <ele>45.6765</ele>
        <time>2019-11-16T10:46:42Z</time>
      </trkpt>
      <trkpt lat="49.42534" lon="0.22957">
        <ele>45.6248</ele>
        <time>2019-11-16T10:46:40Z</time>
      </trkpt>
      <trkpt lat="49.42537" lon="0.22964">
        <ele>45.537</ele>
        <time>2019-11-16T10:46:36Z</time>
      </trkpt>
      <trkpt lat="49.42538" lon="0.22971">
        <ele>45.4306</ele>
        <time>2019-11-16T10:46:34Z</time>
      </trkpt>
      <trkpt lat="49.4254" lon="0.22976">
        <ele>45.3863</ele>
        <time>2019-11-16T10:46:32Z</time>
      </trkpt>
      <trkpt lat="49.42543" lon="0.22983">
        <ele>45.3578</ele>
        <time>2019-11-16T10:46:29Z</time>
      </trkpt>
      <trkpt lat="49.42545" lon="0.22992">
        <ele>45.2991</ele>
        <time>2019-11-16T10:46:28Z</time>
      </trkpt>
      <trkpt lat="49.42546" lon="0.22995">
        <ele>45.2677</ele>
        <time>2019-11-16T10:46:25Z</time>
      </trkpt>
      <trkpt lat="49.42548" lon="0.22999">
        <ele>45.2353</ele>
        <time>2019-11-16T10:46:23Z</time>
      </trkpt>
      <trkpt lat="49.4255" lon="0.23006">
        <ele>45.1874</ele>
        <time>2019-11-16T10:46:16Z</time>
      </trkpt>
      <trkpt lat="49.42551" lon="0.23011">
        <ele>45.1707</ele>
        <time>2019-11-16T10:46:10Z</time>
      </trkpt>
      <trkpt lat="49.42552" lon="0.23019">
        <ele>45.1166</ele>
        <time>2019-11-16T10:45:58Z</time>
      </trkpt>
      <trkpt lat="49.42553" lon="0.23023">
        <ele>45.0772</ele>
        <time>2019-11-16T10:45:33Z</time>
      </trkpt>
      <trkpt lat="49.42556" lon="0.23031">
        <ele>44.9182</ele>
        <time>2019-11-16T10:45:26Z</time>
      </trkpt>
      <trkpt lat="49.42559" lon="0.23036">
        <ele>44.7841</ele>
        <time>2019-11-16T10:45:17Z</time>
      </trkpt>
      <trkpt lat="49.42562" lon="0.23042">
        <ele>44.467</ele>
        <time>2019-11-16T10:45:11Z</time>
      </trkpt>
      <trkpt lat="49.42563" lon="0.23048">
        <ele>44.2576</ele>
        <time>2019-11-16T10:44:56Z</time>
      </trkpt>
      <trkpt lat="49.42564" lon="0.23051">
        <ele>44.2089</ele>
        <time>2019-11-16T10:44:45Z</time>
      </trkpt>
      <trkpt lat="49.42565" lon="0.23058">
        <ele>44.1541</ele>
        <time>2019-11-16T10:44:43Z</time>
      </trkpt>
      <trkpt lat="49.42566" lon="0.23063">
        <ele>44.1196</ele>
        <time>2019-11-16T10:44:41Z</time>
      </trkpt>
      <trkpt lat="49.42566" lon="0.2307">
        <ele>44.1099</ele>
        <time>2019-11-16T10:44:34Z</time>
      </trkpt>
      <trkpt lat="49.42571" lon="0.23077">
        <ele>44.0968</ele>
        <time>2019-11-16T10:44:28Z</time>
      </trkpt>
      <trkpt lat="49.42576" lon="0.23082">
        <ele>44.0934</ele>
        <time>2019-11-16T10:44:24Z</time>
      </trkpt>
      <trkpt lat="49.42575" lon="0.23089">
        <ele>44.0899</ele>
        <time>2019-11-16T10:44:20Z</time>
      </trkpt>
      <trkpt lat="49.42574" lon="0.23097">
        <ele>44.0677</ele>
        <time>2019-11-16T10:44:15Z</time>
      </trkpt>
      <trkpt lat="49.42576" lon="0.23104">
        <ele>44.0462</ele>
        <time>2019-11-16T10:44:10Z</time>
      </trkpt>
      <trkpt lat="49.4258" lon="0.23108">
        <ele>44.0305</ele>
        <time>2019-11-16T10:44:08Z</time>
      </trkpt>
      <trkpt lat="49.42584" lon="0.23112">
        <ele>44.0116</ele>
        <time>2019-11-16T10:44:04Z</time>
      </trkpt>
      <trkpt lat="49.42586" lon="0.23119">
        <ele>43.9867</ele>
        <time>2019-11-16T10:44:01Z</time>
      </trkpt>
      <trkpt lat="49.4259" lon="0.23123">
        <ele>43.9664</ele>
        <time>2019-11-16T10:43:57Z</time>
      </trkpt>
      <trkpt lat="49.42591" lon="0.23126">
        <ele>43.9577</ele>
        <time>2019-11-16T10:43:55Z</time>
      </trkpt>
      <trkpt lat="49.42593" lon="0.23129">
        <ele>43.9409</ele>
        <time>2019-11-16T10:43:54Z</time>
      </trkpt>
      <trkpt lat="49.42596" lon="0.23136">
        <ele>43.9308</ele>
        <time>2019-11-16T10:43:49Z</time>
      </trkpt>
      <trkpt lat="49.42599" lon="0.23143">
        <ele>43.9201</ele>
        <time>2019-11-16T10:43:41Z</time>
      </trkpt>
      <trkpt lat="49.42601" lon="0.23149">
        <ele>43.9148</ele>
        <time>2019-11-16T10:43:35Z</time>
      </trkpt>
      <trkpt lat="49.42602" lon="0.23153">
        <ele>43.9121</ele>
        <time>2019-11-16T10:43:30Z</time>
      </trkpt>
      <trkpt lat="49.42605" lon="0.2316">
        <ele>43.8998</ele>
        <time>2019-11-16T10:43:30Z</time>
      </trkpt>
      <trkpt lat="49.42608" lon="0.23165">
        <ele>43.8926</ele>
        <time>2019-11-16T10:43:24Z</time>
      </trkpt>
      <trkpt lat="49.42609" lon="0.23173">
        <ele>43.8987</ele>
        <time>2019-11-16T10:43:16Z</time>
      </trkpt>
      <trkpt lat="49.42612" lon="0.23178">
        <ele>43.9056</ele>
        <time>2019-11-16T10:43:14Z</time>
      </trkpt>
      <trkpt lat="49.42618" lon="0.23188">
        <ele>3.6</ele>
        <time>2019-11-16T10:43:11Z</time>
      </trkpt>
      <trkpt lat="49.42618" lon="0.23188">
        <ele>3.6</ele>
        <time>2019-11-16T10:43:10Z</time>
      </trkpt>
      <trkpt lat="49.42618" lon="0.23188">
        <ele>3.6</ele>
        <time>2019-11-16T10:43:07Z</time>
      </trkpt>
      <trkpt lat="49.42621" lon="0.23184">
        <ele>43.9102</ele>
        <time>2019-11-16T10:43:02Z</time>
      </trkpt>
      <trkpt lat="49.42624" lon="0.23179">
        <ele>43.916</ele>
        <time>2019-11-16T10:42:59Z</time>
      </trkpt>
      <trkpt lat="49.42626" lon="0.23178">
        <ele>43.9165</ele>
        <time>2019-11-16T10:42:57Z</time>
      </trkpt>
      <trkpt lat="49.42631" lon="0.23174">
        <ele>43.9161</ele>
        <time>2019-11-16T10:42:55Z</time>
      </trkpt>
      <trkpt lat="49.42636" lon="0.23171">
        <ele>43.9181</ele>
        <time>2019-11-16T10:42:47Z</time>
      </trkpt>
      <trkpt lat="49.42641" lon="0.23167">
        <ele>43.925</ele>
        <time>2019-11-16T10:42:43Z</time>
      </trkpt>
      <trkpt lat="49.42645" lon="0.23163">
        <ele>43.931</ele>
        <time>2019-11-16T10:42:37Z</time>
      </trkpt>
      <trkpt lat="49.42652" lon="0.23158">
        <ele>43.9389</ele>
        <time>2019-11-16T10:42:33Z</time>
      </trkpt>
      <trkpt lat="49.42666" lon="0.2315">
        <ele>43.9833</ele>
        <time>2019-11-16T10:42:30Z</time>
      </trkpt>
      <trkpt lat="49.42662" lon="0.23146">
        <ele>44.0063</ele>
        <time>2019-11-16T10:42:27Z</time>
      </trkpt>
      <trkpt lat="49.42662" lon="0.23139">
        <ele>44.022</ele>
        <time>2019-11-16T10:42:21Z</time>
      </trkpt>
      <trkpt lat="49.42666" lon="0.23135">
        <ele>44.0541</ele>
        <time>2019-11-16T10:42:17Z</time>
      </trkpt>
      <trkpt lat="49.4267" lon="0.23128">
        <ele>44.083</ele>
        <time>2019-11-16T10:42:11Z</time>
      </trkpt>
      <trkpt lat="49.42673" lon="0.23121">
        <ele>44.1097</ele>
        <time>2019-11-16T10:42:03Z</time>
      </trkpt>
      <trkpt lat="49.42677" lon="0.23117">
        <ele>44.1465</ele>
        <time>2019-11-16T10:42:00Z</time>
      </trkpt>
      <trkpt lat="49.4268" lon="0.23108">
        <ele>44.1575</ele>
        <time>2019-11-16T10:41:54Z</time>
      </trkpt>
      <trkpt lat="49.42685" lon="0.23102">
        <ele>44.1443</ele>
        <time>2019-11-16T10:41:50Z</time>
      </trkpt>
      <trkpt lat="49.42685" lon="0.23094">
        <ele>44.0849</ele>
        <time>2019-11-16T10:41:44Z</time>
      </trkpt>
      <trkpt lat="49.42686" lon="0.2309">
        <ele>44.053</ele>
        <time>2019-11-16T10:41:39Z</time>
      </trkpt>
      <trkpt lat="49.42689" lon="0.23084">
        <ele>43.9849</ele>
        <time>2019-11-16T10:41:33Z</time>
      </trkpt>
      <trkpt lat="49.42691" lon="0.23079">
        <ele>43.9422</ele>
        <time>2019-11-16T10:41:26Z</time>
      </trkpt>
      <trkpt lat="49.42693" lon="0.23073">
        <ele>43.9013</ele>
        <time>2019-11-16T10:41:22Z</time>
      </trkpt>
      <trkpt lat="49.42697" lon="0.23067">
        <ele>43.8828</ele>
        <time>2019-11-16T10:41:17Z</time>
      </trkpt>
      <trkpt lat="49.427" lon="0.2306">
        <ele>43.86</ele>
        <time>2019-11-16T10:41:12Z</time>
      </trkpt>
      <trkpt lat="49.42703" lon="0.23052">
        <ele>43.8391</ele>
        <time>2019-11-16T10:41:10Z</time>
      </trkpt>
      <trkpt lat="49.42708" lon="0.23054">
        <ele>43.8263</ele>
        <time>2019-11-16T10:41:07Z</time>
      </trkpt>
      <trkpt lat="49.42713" lon="0.23057">
        <ele>43.806</ele>
        <time>2019-11-16T10:41:04Z</time>
      </trkpt>
      <trkpt lat="49.42717" lon="0.23055">
        <ele>43.7775</ele>
        <time>2019-11-16T10:41:01Z</time>
      </trkpt>
      <trkpt lat="49.4272" lon="0.23053">
        <ele>43.7639</ele>
        <time>2019-11-16T10:40:58Z</time>
      </trkpt>
      <trkpt lat="49.42724" lon="0.2305">
        <ele>43.7398</ele>
        <time>2019-11-16T10:40:53Z</time>
      </trkpt>
      <trkpt lat="49.42729" lon="0.23048">
        <ele>43.714</ele>
        <time>2019-11-16T10:40:49Z</time>
      </trkpt>
      <trkpt lat="49.42735" lon="0.23048">
        <ele>43.6919</ele>
        <time>2019-11-16T10:40:43Z</time>
      </trkpt>
      <trkpt lat="49.4274" lon="0.23045">
        <ele>43.6727</ele>
        <time>2019-11-16T10:40:41Z</time>
      </trkpt>
      <trkpt lat="49.42744" lon="0.23045">
        <ele>43.648</ele>
        <time>2019-11-16T10:40:37Z</time>
      </trkpt>
      <trkpt lat="49.42748" lon="0.23045">
        <ele>43.6423</ele>
        <time>2019-11-16T10:40:35Z</time>
      </trkpt>
      <trkpt lat="49.42754" lon="0.23044">
        <ele>43.6395</ele>
        <time>2019-11-16T10:40:32Z</time>
      </trkpt>
      <trkpt lat="49.42756" lon="0.23043">
        <ele>43.6387</ele>
        <time>2019-11-16T10:40:28Z</time>
      </trkpt>
      <trkpt lat="49.4276" lon="0.23042">
        <ele>43.6406</ele>
        <time>2019-11-16T10:40:25Z</time>
      </trkpt>
      <trkpt lat="49.42763" lon="0.23041">
        <ele>43.6425</ele>
        <time>2019-11-16T10:40:22Z</time>
      </trkpt>
      <trkpt lat="49.42768" lon="0.23039">
        <ele>43.6461</ele>
        <time>2019-11-16T10:40:19Z</time>
      </trkpt>
      <trkpt lat="49.42774" lon="0.23036">
        <ele>43.6514</ele>
        <time>2019-11-16T10:40:15Z</time>
      </trkpt>
      <trkpt lat="49.42779" lon="0.23031">
        <ele>43.6544</ele>
        <time>2019-11-16T10:40:13Z</time>
      </trkpt>
      <trkpt lat="49.42783" lon="0.23027">
        <ele>43.6554</ele>
        <time>2019-11-16T10:40:12Z</time>
      </trkpt>
      <trkpt lat="49.42787" lon="0.23021">
        <ele>43.6538</ele>
        <time>2019-11-16T10:40:08Z</time>
      </trkpt>
      <trkpt lat="49.4279" lon="0.23014">
        <ele>43.6555</ele>
        <time>2019-11-16T10:40:03Z</time>
      </trkpt>
      <trkpt lat="49.42797" lon="0.23009">
        <ele>43.6605</ele>
        <time>2019-11-16T10:39:59Z</time>
      </trkpt>
      <trkpt lat="49.428" lon="0.23007">
        <ele>43.6642</ele>
        <time>2019-11-16T10:39:57Z</time>
      </trkpt>
      <trkpt lat="49.42808" lon="0.23002">
        <ele>43.6824</ele>
        <time>2019-11-16T10:39:52Z</time>
      </trkpt>
      <trkpt lat="49.4281" lon="0.22995">
        <ele>43.7029</ele>
        <time>2019-11-16T10:39:47Z</time>
      </trkpt>
      <trkpt lat="49.42808" lon="0.22988">
        <ele>43.7128</ele>
        <time>2019-11-16T10:39:45Z</time>
      </trkpt>
      <trkpt lat="49.42807" lon="0.22984">
        <ele>43.7135</ele>
        <time>2019-11-16T10:39:42Z</time>
      </trkpt>
      <trkpt lat="49.42806" lon="0.22976">
        <ele>43.7143</ele>
        <time>2019-11-16T10:39:39Z</time>
      </trkpt>
      <trkpt lat="49.42805" lon="0.22969">
        <ele>43.7155</ele>
        <time>2019-11-16T10:39:34Z</time>
      </trkpt>
      <trkpt lat="49.42805" lon="0.22964">
        <ele>43.7159</ele>
        <time>2019-11-16T10:39:29Z</time>
      </trkpt>
      <trkpt lat="49.42805" lon="0.22959">
        <ele>43.7169</ele>
        <time>2019-11-16T10:39:26Z</time>
      </trkpt>
      <trkpt lat="49.42805" lon="0.22955">
        <ele>43.7182</ele>
        <time>2019-11-16T10:39:22Z</time>
      </trkpt>
      <trkpt lat="49.42806" lon="0.22948">
        <ele>43.72</ele>
        <time>2019-11-16T10:39:18Z</time>
      </trkpt>
      <trkpt lat="49.42806" lon="0.2294">
        <ele>43.7186</ele>
        <time>2019-11-16T10:39:15Z</time>
      </trkpt>
      <trkpt lat="49.42805" lon="0.22933">
        <ele>43.7162</ele>
        <time>2019-11-16T10:39:11Z</time>
      </trkpt>
      <trkpt lat="49.42805" lon="0.22926">
        <ele>43.7138</ele>
        <time>2019-11-16T10:39:03Z</time>
      </trkpt>
      <trkpt lat="49.42804" lon="0.22918">
        <ele>43.7084</ele>
        <time>2019-11-16T10:39:03Z</time>
      </trkpt>
      <trkpt lat="49.42802" lon="0.22911">
        <ele>43.7038</ele>
        <time>2019-11-16T10:38:08Z</time>
      </trkpt>
      <trkpt lat="49.42799" lon="0.22905">
        <ele>43.6958</ele>
        <time>2019-11-16T10:38:08Z</time>
      </trkpt>
      <trkpt lat="49.42797" lon="0.22892">
        <ele>43.678</ele>
        <time>2019-11-16T10:38:00Z</time>
      </trkpt>
      <trkpt lat="49.42797" lon="0.22853">
        <ele>3</ele>
        <time>2019-11-16T10:37:56Z</time>
      </trkpt>
      <trkpt lat="49.42797" lon="0.22853">
        <ele>3</ele>
        <time>2019-11-16T10:37:54Z</time>
      </trkpt>
      <trkpt lat="49.42797" lon="0.22853">
        <ele>3</ele>
        <time>2019-11-16T10:37:50Z</time>
      </trkpt>
      <trkpt lat="49.42797" lon="0.22853">
        <ele>3</ele>
        <time>2019-11-16T10:37:45Z</time>
      </trkpt>
      <trkpt lat="49.42797" lon="0.22845">
        <ele>43.5347</ele>
        <time>2019-11-16T10:37:40Z</time>
      </trkpt>
      <trkpt lat="49.42796" lon="0.22841">
        <ele>43.528</ele>
        <time>2019-11-16T10:37:35Z</time>
      </trkpt>
      <trkpt lat="49.42795" lon="0.22834">
        <ele>43.5136</ele>
        <time>2019-11-16T10:37:30Z</time>
      </trkpt>
      <trkpt lat="49.42793" lon="0.22827">
        <ele>43.4947</ele>
        <time>2019-11-16T10:37:25Z</time>
      </trkpt>
      <trkpt lat="49.42791" lon="0.2282">
        <ele>43.4734</ele>
        <time>2019-11-16T10:37:19Z</time>
      </trkpt>
      <trkpt lat="49.42788" lon="0.22814">
        <ele>43.4531</ele>
        <time>2019-11-16T10:37:14Z</time>
      </trkpt>
      <trkpt lat="49.42784" lon="0.22809">
        <ele>43.4357</ele>
        <time>2019-11-16T10:37:09Z</time>
      </trkpt>
      <trkpt lat="49.4278" lon="0.22805">
        <ele>43.4188</ele>
        <time>2019-11-16T10:37:05Z</time>
      </trkpt>
      <trkpt lat="49.42775" lon="0.22804">
        <ele>43.3999</ele>
        <time>2019-11-16T10:37:03Z</time>
      </trkpt>
      <trkpt lat="49.42772" lon="0.22799">
        <ele>43.3829</ele>
        <time>2019-11-16T10:37:01Z</time>
      </trkpt>
      <trkpt lat="49.42769" lon="0.22792">
        <ele>43.366</ele>
        <time>2019-11-16T10:36:57Z</time>
      </trkpt>
      <trkpt lat="49.42765" lon="0.22787">
        <ele>43.351</ele>
        <time>2019-11-16T10:36:54Z</time>
      </trkpt>
      <trkpt lat="49.42765" lon="0.22783">
        <ele>43.3422</ele>
        <time>2019-11-16T10:36:49Z</time>
      </trkpt>
      <trkpt lat="49.42764" lon="0.22778">
        <ele>43.3321</ele>
        <time>2019-11-16T10:36:44Z</time>
      </trkpt>
      <trkpt lat="49.42762" lon="0.22768">
        <ele>43.3085</ele>
        <time>2019-11-16T10:36:41Z</time>
      </trkpt>
      <trkpt lat="49.42762" lon="0.22761">
        <ele>43.2892</ele>
        <time>2019-11-16T10:36:37Z</time>
      </trkpt>
      <trkpt lat="49.42763" lon="0.22753">
        <ele>43.2542</ele>
        <time>2019-11-16T10:36:35Z</time>
      </trkpt>
      <trkpt lat="49.42765" lon="0.22746">
        <ele>43.2155</ele>
        <time>2019-11-16T10:36:33Z</time>
      </trkpt>
      <trkpt lat="49.42767" lon="0.22744">
        <ele>43.1904</ele>
        <time>2019-11-16T10:36:32Z</time>
      </trkpt>
      <trkpt lat="49.42771" lon="0.22739">
        <ele>43.1513</ele>
        <time>2019-11-16T10:36:30Z</time>
      </trkpt>
      <trkpt lat="49.42773" lon="0.22736">
        <ele>43.1306</ele>
        <time>2019-11-16T10:36:26Z</time>
      </trkpt>
      <trkpt lat="49.42777" lon="0.22733">
        <ele>43.1096</ele>
        <time>2019-11-16T10:36:21Z</time>
      </trkpt>
      <trkpt lat="49.42779" lon="0.22731">
        <ele>43.0987</ele>
        <time>2019-11-16T10:36:18Z</time>
      </trkpt>
      <trkpt lat="49.42782" lon="0.22728">
        <ele>43.077</ele>
        <time>2019-11-16T10:36:15Z</time>
      </trkpt>
      <trkpt lat="49.42785" lon="0.22725">
        <ele>43.0363</ele>
        <time>2019-11-16T10:35:57Z</time>
      </trkpt>
      <trkpt lat="49.4279" lon="0.2272">
        <ele>42.9896</ele>
        <time>2019-11-16T10:35:57Z</time>
      </trkpt>
      <trkpt lat="49.42794" lon="0.22716">
        <ele>42.9646</ele>
        <time>2019-11-16T10:35:50Z</time>
      </trkpt>
      <trkpt lat="49.42806" lon="0.22693">
        <ele>2.9</ele>
        <time>2019-11-16T10:35:44Z</time>
      </trkpt>
      <trkpt lat="49.42806" lon="0.22693">
        <ele>2.9</ele>
        <time>2019-11-16T10:35:39Z</time>
      </trkpt>
      <trkpt lat="49.42806" lon="0.22693">
        <ele>2.9</ele>
        <time>2019-11-16T10:35:39Z</time>
      </trkpt>
      <trkpt lat="49.42806" lon="0.22693">
        <ele>2.9</ele>
        <time>2019-11-16T10:35:26Z</time>
      </trkpt>
      <trkpt lat="49.42806" lon="0.22684">
        <ele>42.8485</ele>
        <time>2019-11-16T10:35:26Z</time>
      </trkpt>
      <trkpt lat="49.42806" lon="0.2268">
        <ele>42.8416</ele>
        <time>2019-11-16T10:35:18Z</time>
      </trkpt>
      <trkpt lat="49.42803" lon="0.22662">
        <ele>2.4</ele>
        <time>2019-11-16T10:35:18Z</time>
      </trkpt>
      <trkpt lat="49.42803" lon="0.22662">
        <ele>2.4</ele>
        <time>2019-11-16T10:35:13Z</time>
      </trkpt>
      <trkpt lat="49.42803" lon="0.22662">
        <ele>2.4</ele>
        <time>2019-11-16T10:35:05Z</time>
      </trkpt>
      <trkpt lat="49.42803" lon="0.22662">
        <ele>2.4</ele>
        <time>2019-11-16T10:35:03Z</time>
      </trkpt>
      <trkpt lat="49.42797" lon="0.22647">
        <ele>2.4</ele>
        <time>2019-11-16T10:34:59Z</time>
      </trkpt>
      <trkpt lat="49.42797" lon="0.22647">
        <ele>2.4</ele>
        <time>2019-11-16T10:34:59Z</time>
      </trkpt>
      <trkpt lat="49.42797" lon="0.22647">
        <ele>2.4</ele>
        <time>2019-11-16T10:34:51Z</time>
      </trkpt>
      <trkpt lat="49.42798" lon="0.22644">
        <ele>42.9198</ele>
        <time>2019-11-16T10:34:42Z</time>
      </trkpt>
      <trkpt lat="49.42802" lon="0.22638">
        <ele>42.9213</ele>
        <time>2019-11-16T10:34:36Z</time>
      </trkpt>
      <trkpt lat="49.42807" lon="0.22634">
        <ele>2.5</ele>
        <time>2019-11-16T10:34:19Z</time>
      </trkpt>
      <trkpt lat="49.42807" lon="0.22634">
        <ele>2.5</ele>
        <time>2019-11-16T10:34:11Z</time>
      </trkpt>
      <trkpt lat="49.42807" lon="0.22634">
        <ele>2.5</ele>
        <time>2019-11-16T10:34:09Z</time>
      </trkpt>
      <trkpt lat="49.42803" lon="0.22595">
        <ele>2.6</ele>
        <time>2019-11-16T10:34:05Z</time>
      </trkpt>
      <trkpt lat="49.42803" lon="0.22595">
        <ele>2.6</ele>
        <time>2019-11-16T10:34:05Z</time>
      </trkpt>
      <trkpt lat="49.42803" lon="0.22595">
        <ele>2.6</ele>
        <time>2019-11-16T10:33:53Z</time>
      </trkpt>
      <trkpt lat="49.42802" lon="0.22591">
        <ele>42.6818</ele>
        <time>2019-11-16T10:33:53Z</time>
      </trkpt>
      <trkpt lat="49.42802" lon="0.22585">
        <ele>42.6607</ele>
        <time>2019-11-16T10:33:46Z</time>
      </trkpt>
      <trkpt lat="49.42803" lon="0.22567">
        <ele>3</ele>
        <time>2019-11-16T10:33:42Z</time>
      </trkpt>
      <trkpt lat="49.42803" lon="0.22567">
        <ele>3</ele>
        <time>2019-11-16T10:33:36Z</time>
      </trkpt>
      <trkpt lat="49.42803" lon="0.22567">
        <ele>3</ele>
        <time>2019-11-16T10:33:33Z</time>
      </trkpt>
      <trkpt lat="49.42803" lon="0.22567">
        <ele>3</ele>
        <time>2019-11-16T10:33:33Z</time>
      </trkpt>
      <trkpt lat="49.42803" lon="0.22559">
        <ele>42.6792</ele>
        <time>2019-11-16T10:33:12Z</time>
      </trkpt>
      <trkpt lat="49.428" lon="0.22551">
        <ele>42.71</ele>
        <time>2019-11-16T10:33:05Z</time>
      </trkpt>
      <trkpt lat="49.428" lon="0.22543">
        <ele>42.7267</ele>
        <time>2019-11-16T10:33:01Z</time>
      </trkpt>
      <trkpt lat="49.42791" lon="0.22518">
        <ele>3</ele>
        <time>2019-11-16T10:32:56Z</time>
      </trkpt>
      <trkpt lat="49.42791" lon="0.22518">
        <ele>3</ele>
        <time>2019-11-16T10:32:50Z</time>
      </trkpt>
      <trkpt lat="49.42791" lon="0.22518">
        <ele>3</ele>
        <time>2019-11-16T10:32:47Z</time>
      </trkpt>
      <trkpt lat="49.42796" lon="0.22516">
        <ele>42.8687</ele>
        <time>2019-11-16T10:32:47Z</time>
      </trkpt>
      <trkpt lat="49.42801" lon="0.22512">
        <ele>42.8721</ele>
        <time>2019-11-16T10:32:41Z</time>
      </trkpt>
      <trkpt lat="49.42802" lon="0.22507">
        <ele>42.8774</ele>
        <time>2019-11-16T10:32:33Z</time>
      </trkpt>
      <trkpt lat="49.42805" lon="0.22499">
        <ele>42.8727</ele>
        <time>2019-11-16T10:32:27Z</time>
      </trkpt>
      <trkpt lat="49.42805" lon="0.22487">
        <ele>2.6</ele>
        <time>2019-11-16T10:32:26Z</time>
      </trkpt>
      <trkpt lat="49.42805" lon="0.22487">
        <ele>2.6</ele>
        <time>2019-11-16T10:32:24Z</time>
      </trkpt>
      <trkpt lat="49.42805" lon="0.22487">
        <ele>2.6</ele>
        <time>2019-11-16T10:32:18Z</time>
      </trkpt>
      <trkpt lat="49.42803" lon="0.22479">
        <ele>42.7812</ele>
        <time>2019-11-16T10:32:15Z</time>
      </trkpt>
      <trkpt lat="49.42805" lon="0.22473">
        <ele>42.7752</ele>
        <time>2019-11-16T10:32:12Z</time>
      </trkpt>
      <trkpt lat="49.42808" lon="0.22462">
        <ele>42.7597</ele>
        <time>2019-11-16T10:32:12Z</time>
      </trkpt>
      <trkpt lat="49.42806" lon="0.22456">
        <ele>42.7268</ele>
        <time>2019-11-16T10:32:09Z</time>
      </trkpt>
      <trkpt lat="49.42804" lon="0.22454">
        <ele>42.699</ele>
        <time>2019-11-16T10:32:02Z</time>
      </trkpt>
      <trkpt lat="49.428" lon="0.2245">
        <ele>42.6641</ele>
        <time>2019-11-16T10:31:58Z</time>
      </trkpt>
      <trkpt lat="49.42792" lon="0.2244">
        <ele>2.4</ele>
        <time>2019-11-16T10:31:51Z</time>
      </trkpt>
      <trkpt lat="49.42792" lon="0.2244">
        <ele>2.4</ele>
        <time>2019-11-16T10:31:47Z</time>
      </trkpt>
      <trkpt lat="49.42792" lon="0.2244">
        <ele>2.4</ele>
        <time>2019-11-16T10:31:43Z</time>
      </trkpt>
      <trkpt lat="49.42789" lon="0.22435">
        <ele>42.5045</ele>
        <time>2019-11-16T10:31:40Z</time>
      </trkpt>
      <trkpt lat="49.42786" lon="0.22428">
        <ele>42.4615</ele>
        <time>2019-11-16T10:31:38Z</time>
      </trkpt>
      <trkpt lat="49.42785" lon="0.22421">
        <ele>42.426</ele>
        <time>2019-11-16T10:31:35Z</time>
      </trkpt>
      <trkpt lat="49.42787" lon="0.22415">
        <ele>42.3914</ele>
        <time>2019-11-16T10:31:30Z</time>
      </trkpt>
      <trkpt lat="49.42789" lon="0.22413">
        <ele>42.3638</ele>
        <time>2019-11-16T10:31:27Z</time>
      </trkpt>
      <trkpt lat="49.42791" lon="0.22411">
        <ele>42.3451</ele>
        <time>2019-11-16T10:31:25Z</time>
      </trkpt>
      <trkpt lat="49.42794" lon="0.22408">
        <ele>42.317</ele>
        <time>2019-11-16T10:31:25Z</time>
      </trkpt>
      <trkpt lat="49.42799" lon="0.22405">
        <ele>42.2831</ele>
        <time>2019-11-16T10:31:14Z</time>
      </trkpt>
      <trkpt lat="49.42804" lon="0.22403">
        <ele>42.2685</ele>
        <time>2019-11-16T10:31:14Z</time>
      </trkpt>
      <trkpt lat="49.42807" lon="0.22401">
        <ele>42.261</ele>
        <time>2019-11-16T10:31:07Z</time>
      </trkpt>
      <trkpt lat="49.42821" lon="0.22395">
        <ele>2</ele>
        <time>2019-11-16T10:31:07Z</time>
      </trkpt>
      <trkpt lat="49.42821" lon="0.22395">
        <ele>2</ele>
        <time>2019-11-16T10:30:25Z</time>
      </trkpt>
      <trkpt lat="49.42821" lon="0.22395">
        <ele>2</ele>
        <time>2019-11-16T10:30:17Z</time>
      </trkpt>
      <trkpt lat="49.42821" lon="0.22395">
        <ele>2</ele>
        <time>2019-11-16T10:30:14Z</time>
      </trkpt>
      <trkpt lat="49.42822" lon="0.2238">
        <ele>2</ele>
        <time>2019-11-16T10:30:14Z</time>
      </trkpt>
      <trkpt lat="49.42822" lon="0.2238">
        <ele>2</ele>
        <time>2019-11-16T10:30:06Z</time>
      </trkpt>
      <trkpt lat="49.42822" lon="0.2238">
        <ele>2</ele>
        <time>2019-11-16T10:29:58Z</time>
      </trkpt>
      <trkpt lat="49.42823" lon="0.22384">
        <ele>42.5004</ele>
        <time>2019-11-16T10:29:52Z</time>
      </trkpt>
      <trkpt lat="49.42825" lon="0.22398">
        <ele>2</ele>
        <time>2019-11-16T10:29:49Z</time>
      </trkpt>
      <trkpt lat="49.42825" lon="0.22398">
        <ele>2</ele>
        <time>2019-11-16T10:29:45Z</time>
      </trkpt>
      <trkpt lat="49.42825" lon="0.22398">
        <ele>2</ele>
        <time>2019-11-16T10:29:41Z</time>
      </trkpt>
      <trkpt lat="49.4282" lon="0.224">
        <ele>42.541</ele>
        <time>2019-11-16T10:29:39Z</time>
      </trkpt>
      <trkpt lat="49.42817" lon="0.22401">
        <ele>42.5497</ele>
        <time>2019-11-16T10:29:36Z</time>
      </trkpt>
      <trkpt lat="49.42813" lon="0.22403">
        <ele>42.5586</ele>
        <time>2019-11-16T10:29:33Z</time>
      </trkpt>
      <trkpt lat="49.42808" lon="0.22406">
        <ele>42.5707</ele>
        <time>2019-11-16T10:29:30Z</time>
      </trkpt>
      <trkpt lat="49.42804" lon="0.22408">
        <ele>42.5806</ele>
        <time>2019-11-16T10:29:28Z</time>
      </trkpt>
      <trkpt lat="49.42799" lon="0.2241">
        <ele>42.5983</ele>
        <time>2019-11-16T10:29:24Z</time>
      </trkpt>
      <trkpt lat="49.42795" lon="0.22414">
        <ele>42.6141</ele>
        <time>2019-11-16T10:29:21Z</time>
      </trkpt>
      <trkpt lat="49.42791" lon="0.22416">
        <ele>42.6267</ele>
        <time>2019-11-16T10:29:18Z</time>
      </trkpt>
      <trkpt lat="49.42786" lon="0.22415">
        <ele>42.6337</ele>
        <time>2019-11-16T10:29:16Z</time>
      </trkpt>
      <trkpt lat="49.42782" lon="0.22416">
        <ele>42.6328</ele>
        <time>2019-11-16T10:29:12Z</time>
      </trkpt>
      <trkpt lat="49.42775" lon="0.22416">
        <ele>42.6277</ele>
        <time>2019-11-16T10:29:09Z</time>
      </trkpt>
      <trkpt lat="49.42771" lon="0.22418">
        <ele>42.6211</ele>
        <time>2019-11-16T10:29:09Z</time>
      </trkpt>
      <trkpt lat="49.42768" lon="0.22418">
        <ele>42.6187</ele>
        <time>2019-11-16T10:28:50Z</time>
      </trkpt>
      <trkpt lat="49.42763" lon="0.22418">
        <ele>42.6196</ele>
        <time>2019-11-16T10:28:42Z</time>
      </trkpt>
      <trkpt lat="49.42757" lon="0.22415">
        <ele>42.6185</ele>
        <time>2019-11-16T10:28:37Z</time>
      </trkpt>
      <trkpt lat="49.42742" lon="0.2243">
        <ele>2</ele>
        <time>2019-11-16T10:28:35Z</time>
      </trkpt>
      <trkpt lat="49.42742" lon="0.2243">
        <ele>2</ele>
        <time>2019-11-16T10:28:33Z</time>
      </trkpt>
      <trkpt lat="49.42742" lon="0.2243">
        <ele>2</ele>
        <time>2019-11-16T10:28:31Z</time>
      </trkpt>
      <trkpt lat="49.42742" lon="0.22437">
        <ele>42.6072</ele>
        <time>2019-11-16T10:28:27Z</time>
      </trkpt>
      <trkpt lat="49.42741" lon="0.22442">
        <ele>42.5988</ele>
        <time>2019-11-16T10:28:24Z</time>
      </trkpt>
      <trkpt lat="49.4274" lon="0.22446">
        <ele>42.5908</ele>
        <time>2019-11-16T10:28:22Z</time>
      </trkpt>
      <trkpt lat="49.4274" lon="0.2245">
        <ele>42.5841</ele>
        <time>2019-11-16T10:28:20Z</time>
      </trkpt>
      <trkpt lat="49.42739" lon="0.22458">
        <ele>42.5761</ele>
        <time>2019-11-16T10:28:17Z</time>
      </trkpt>
      <trkpt lat="49.4274" lon="0.22466">
        <ele>42.5774</ele>
        <time>2019-11-16T10:28:15Z</time>
      </trkpt>
      <trkpt lat="49.42739" lon="0.22471">
        <ele>42.5821</ele>
        <time>2019-11-16T10:28:12Z</time>
      </trkpt>
      <trkpt lat="49.42739" lon="0.22476">
        <ele>42.5878</ele>
        <time>2019-11-16T10:28:03Z</time>
      </trkpt>
      <trkpt lat="49.42738" lon="0.22485">
        <ele>42.5982</ele>
        <time>2019-11-16T10:27:55Z</time>
      </trkpt>
      <trkpt lat="49.42737" lon="0.22491">
        <ele>42.608</ele>
        <time>2019-11-16T10:27:52Z</time>
      </trkpt>
      <trkpt lat="49.42739" lon="0.22512">
        <ele>2.7</ele>
        <time>2019-11-16T10:27:50Z</time>
      </trkpt>
      <trkpt lat="49.42739" lon="0.22512">
        <ele>2.7</ele>
        <time>2019-11-16T10:27:14Z</time>
      </trkpt>
      <trkpt lat="49.42739" lon="0.22512">
        <ele>2.7</ele>
        <time>2019-11-16T10:27:14Z</time>
      </trkpt>
      <trkpt lat="49.42734" lon="0.22516">
        <ele>42.7811</ele>
        <time>2019-11-16T10:27:07Z</time>
      </trkpt>
      <trkpt lat="49.42735" lon="0.22552">
        <ele>2.5</ele>
        <time>2019-11-16T10:27:01Z</time>
      </trkpt>
      <trkpt lat="49.42735" lon="0.22552">
        <ele>2.5</ele>
        <time>2019-11-16T10:26:58Z</time>
      </trkpt>
      <trkpt lat="49.42735" lon="0.22552">
        <ele>2.5</ele>
        <time>2019-11-16T10:26:53Z</time>
      </trkpt>
      <trkpt lat="49.42735" lon="0.22552">
        <ele>2.5</ele>
        <time>2019-11-16T10:26:49Z</time>
      </trkpt>
      <trkpt lat="49.42736" lon="0.2256">
        <ele>42.9292</ele>
        <time>2019-11-16T10:26:45Z</time>
      </trkpt>
      <trkpt lat="49.42735" lon="0.22567">
        <ele>42.8978</ele>
        <time>2019-11-16T10:26:42Z</time>
      </trkpt>
      <trkpt lat="49.42734" lon="0.22575">
        <ele>42.8415</ele>
        <time>2019-11-16T10:26:38Z</time>
      </trkpt>
      <trkpt lat="49.42733" lon="0.22582">
        <ele>42.795</ele>
        <time>2019-11-16T10:26:33Z</time>
      </trkpt>
      <trkpt lat="49.42733" lon="0.22589">
        <ele>42.7495</ele>
        <time>2019-11-16T10:26:30Z</time>
      </trkpt>
      <trkpt lat="49.42732" lon="0.22594">
        <ele>42.7125</ele>
        <time>2019-11-16T10:26:28Z</time>
      </trkpt>
      <trkpt lat="49.42731" lon="0.22602">
        <ele>42.6628</ele>
        <time>2019-11-16T10:26:23Z</time>
      </trkpt>
      <trkpt lat="49.42731" lon="0.22609">
        <ele>42.5998</ele>
        <time>2019-11-16T10:26:19Z</time>
      </trkpt>
      <trkpt lat="49.42731" lon="0.22614">
        <ele>42.5598</ele>
        <time>2019-11-16T10:26:15Z</time>
      </trkpt>
      <trkpt lat="49.4273" lon="0.22618">
        <ele>42.5317</ele>
        <time>2019-11-16T10:26:11Z</time>
      </trkpt>
      <trkpt lat="49.4273" lon="0.22625">
        <ele>42.4581</ele>
        <time>2019-11-16T10:26:05Z</time>
      </trkpt>
      <trkpt lat="49.42731" lon="0.22634">
        <ele>42.3962</ele>
        <time>2019-11-16T10:25:59Z</time>
      </trkpt>
      <trkpt lat="49.42731" lon="0.22643">
        <ele>42.3316</ele>
        <time>2019-11-16T10:25:55Z</time>
      </trkpt>
      <trkpt lat="49.42732" lon="0.2265">
        <ele>42.2648</ele>
        <time>2019-11-16T10:25:52Z</time>
      </trkpt>
      <trkpt lat="49.42732" lon="0.22659">
        <ele>42.1644</ele>
        <time>2019-11-16T10:25:50Z</time>
      </trkpt>
      <trkpt lat="49.4273" lon="0.22666">
        <ele>42.055</ele>
        <time>2019-11-16T10:25:48Z</time>
      </trkpt>
      <trkpt lat="49.4273" lon="0.22673">
        <ele>41.9835</ele>
        <time>2019-11-16T10:25:43Z</time>
      </trkpt>
      <trkpt lat="49.42732" lon="0.22679">
        <ele>41.9352</ele>
        <time>2019-11-16T10:25:38Z</time>
      </trkpt>
      <trkpt lat="49.42732" lon="0.22684">
        <ele>41.904</ele>
        <time>2019-11-16T10:25:36Z</time>
      </trkpt>
      <trkpt lat="49.42731" lon="0.22688">
        <ele>41.8741</ele>
        <time>2019-11-16T10:25:32Z</time>
      </trkpt>
      <trkpt lat="49.42731" lon="0.22695">
        <ele>41.7934</ele>
        <time>2019-11-16T10:25:27Z</time>
      </trkpt>
      <trkpt lat="49.4273" lon="0.22703">
        <ele>41.7003</ele>
        <time>2019-11-16T10:25:24Z</time>
      </trkpt>
      <trkpt lat="49.42731" lon="0.22706">
        <ele>41.6619</ele>
        <time>2019-11-16T10:25:21Z</time>
      </trkpt>
      <trkpt lat="49.42731" lon="0.22714">
        <ele>41.5818</ele>
        <time>2019-11-16T10:25:19Z</time>
      </trkpt>
      <trkpt lat="49.4273" lon="0.22721">
        <ele>41.4771</ele>
        <time>2019-11-16T10:25:17Z</time>
      </trkpt>
      <trkpt lat="49.4273" lon="0.22726">
        <ele>41.4102</ele>
        <time>2019-11-16T10:25:12Z</time>
      </trkpt>
      <trkpt lat="49.42731" lon="0.22735">
        <ele>41.344</ele>
        <time>2019-11-16T10:25:06Z</time>
      </trkpt>
      <trkpt lat="49.42731" lon="0.22739">
        <ele>41.2996</ele>
        <time>2019-11-16T10:25:03Z</time>
      </trkpt>
      <trkpt lat="49.4273" lon="0.22743">
        <ele>41.2541</ele>
        <time>2019-11-16T10:25:01Z</time>
      </trkpt>
      <trkpt lat="49.4273" lon="0.22751">
        <ele>41.162</ele>
        <time>2019-11-16T10:24:56Z</time>
      </trkpt>
      <trkpt lat="49.42728" lon="0.2276">
        <ele>41.0211</ele>
        <time>2019-11-16T10:24:51Z</time>
      </trkpt>
      <trkpt lat="49.42728" lon="0.22764">
        <ele>40.9457</ele>
        <time>2019-11-16T10:24:46Z</time>
      </trkpt>
      <trkpt lat="49.42728" lon="0.22768">
        <ele>40.8937</ele>
        <time>2019-11-16T10:24:42Z</time>
      </trkpt>
      <trkpt lat="49.42729" lon="0.22777">
        <ele>40.7571</ele>
        <time>2019-11-16T10:24:38Z</time>
      </trkpt>
      <trkpt lat="49.42729" lon="0.22784">
        <ele>40.6117</ele>
        <time>2019-11-16T10:24:34Z</time>
      </trkpt>
      <trkpt lat="49.42729" lon="0.22793">
        <ele>40.4528</ele>
        <time>2019-11-16T10:24:31Z</time>
      </trkpt>
      <trkpt lat="49.42728" lon="0.22796">
        <ele>40.3154</ele>
        <time>2019-11-16T10:24:26Z</time>
      </trkpt>
      <trkpt lat="49.42727" lon="0.22803">
        <ele>40.1631</ele>
        <time>2019-11-16T10:24:22Z</time>
      </trkpt>
      <trkpt lat="49.42727" lon="0.22811">
        <ele>40.002</ele>
        <time>2019-11-16T10:24:18Z</time>
      </trkpt>
      <trkpt lat="49.42726" lon="0.22818">
        <ele>39.8764</ele>
        <time>2019-11-16T10:23:09Z</time>
      </trkpt>
      <trkpt lat="49.42726" lon="0.22826">
        <ele>39.6545</ele>
        <time>2019-11-16T10:23:01Z</time>
      </trkpt>
      <trkpt lat="49.42727" lon="0.22834">
        <ele>39.4754</ele>
        <time>2019-11-16T10:22:57Z</time>
      </trkpt>
      <trkpt lat="49.42724" lon="0.22885">
        <ele>3.4</ele>
        <time>2019-11-16T10:22:55Z</time>
      </trkpt>
      <trkpt lat="49.42724" lon="0.22885">
        <ele>3.4</ele>
        <time>2019-11-16T10:22:47Z</time>
      </trkpt>
      <trkpt lat="49.42724" lon="0.22885">
        <ele>3.4</ele>
        <time>2019-11-16T10:22:42Z</time>
      </trkpt>
      <trkpt lat="49.42727" lon="0.22892">
        <ele>38.2402</ele>
        <time>2019-11-16T10:22:37Z</time>
      </trkpt>
      <trkpt lat="49.42726" lon="0.22898">
        <ele>38.2693</ele>
        <time>2019-11-16T10:22:30Z</time>
      </trkpt>
      <trkpt lat="49.42726" lon="0.22906">
        <ele>38.3881</ele>
        <time>2019-11-16T10:22:25Z</time>
      </trkpt>
      <trkpt lat="49.42725" lon="0.22915">
        <ele>38.5369</ele>
        <time>2019-11-16T10:22:23Z</time>
      </trkpt>
      <trkpt lat="49.42726" lon="0.22922">
        <ele>38.7157</ele>
        <time>2019-11-16T10:22:17Z</time>
      </trkpt>
      <trkpt lat="49.42726" lon="0.22929">
        <ele>38.9697</ele>
        <time>2019-11-16T10:22:08Z</time>
      </trkpt>
      <trkpt lat="49.42726" lon="0.22934">
        <ele>39.1245</ele>
        <time>2019-11-16T10:22:05Z</time>
      </trkpt>
      <trkpt lat="49.42726" lon="0.22953">
        <ele>2.5</ele>
        <time>2019-11-16T10:21:59Z</time>
      </trkpt>
      <trkpt lat="49.42726" lon="0.22953">
        <ele>2.5</ele>
        <time>2019-11-16T10:21:55Z</time>
      </trkpt>
      <trkpt lat="49.42726" lon="0.22953">
        <ele>2.5</ele>
        <time>2019-11-16T10:21:51Z</time>
      </trkpt>
      <trkpt lat="49.42723" lon="0.22961">
        <ele>39.5988</ele>
        <time>2019-11-16T10:21:48Z</time>
      </trkpt>
      <trkpt lat="49.42721" lon="0.22969">
        <ele>39.7523</ele>
        <time>2019-11-16T10:21:46Z</time>
      </trkpt>
      <trkpt lat="49.42719" lon="0.22975">
        <ele>39.8737</ele>
        <time>2019-11-16T10:21:41Z</time>
      </trkpt>
      <trkpt lat="49.42716" lon="0.22982">
        <ele>40.0018</ele>
        <time>2019-11-16T10:21:33Z</time>
      </trkpt>
      <trkpt lat="49.42712" lon="0.22985">
        <ele>40.0895</ele>
        <time>2019-11-16T10:21:29Z</time>
      </trkpt>
      <trkpt lat="49.42703" lon="0.23">
        <ele>2.2</ele>
        <time>2019-11-16T10:21:25Z</time>
      </trkpt>
      <trkpt lat="49.42703" lon="0.23">
        <ele>2.2</ele>
        <time>2019-11-16T10:21:23Z</time>
      </trkpt>
      <trkpt lat="49.42703" lon="0.23">
        <ele>2.2</ele>
        <time>2019-11-16T10:21:18Z</time>
      </trkpt>
      <trkpt lat="49.42702" lon="0.23005">
        <ele>40.7912</ele>
        <time>2019-11-16T10:21:16Z</time>
      </trkpt>
      <trkpt lat="49.42701" lon="0.23013">
        <ele>41.0904</ele>
        <time>2019-11-16T10:21:08Z</time>
      </trkpt>
      <trkpt lat="49.42701" lon="0.23017">
        <ele>41.2352</ele>
        <time>2019-11-16T10:21:08Z</time>
      </trkpt>
      <trkpt lat="49.427" lon="0.23025">
        <ele>41.5935</ele>
        <time>2019-11-16T10:21:00Z</time>
      </trkpt>
      <trkpt lat="49.42709" lon="0.23048">
        <ele>1.3</ele>
        <time>2019-11-16T10:20:56Z</time>
      </trkpt>
      <trkpt lat="49.42709" lon="0.23048">
        <ele>1.3</ele>
        <time>2019-11-16T10:20:54Z</time>
      </trkpt>
      <trkpt lat="49.42709" lon="0.23048">
        <ele>1.3</ele>
        <time>2019-11-16T10:20:51Z</time>
      </trkpt>
      <trkpt lat="49.42709" lon="0.23048">
        <ele>1.3</ele>
        <time>2019-11-16T10:20:49Z</time>
      </trkpt>
      <trkpt lat="49.42706" lon="0.23052">
        <ele>43.9425</ele>
        <time>2019-11-16T10:20:46Z</time>
      </trkpt>
      <trkpt lat="49.42704" lon="0.23056">
        <ele>44.2334</ele>
        <time>2019-11-16T10:20:45Z</time>
      </trkpt>
      <trkpt lat="49.42702" lon="0.23063">
        <ele>44.6703</ele>
        <time>2019-11-16T10:20:28Z</time>
      </trkpt>
      <trkpt lat="49.427" lon="0.23067">
        <ele>44.9647</ele>
        <time>2019-11-16T10:20:20Z</time>
      </trkpt>
      <trkpt lat="49.42697" lon="0.23073">
        <ele>45.4012</ele>
        <time>2019-11-16T10:20:16Z</time>
      </trkpt>
      <trkpt lat="49.42685" lon="0.23099">
        <ele>1</ele>
        <time>2019-11-16T10:20:14Z</time>
      </trkpt>
      <trkpt lat="49.42685" lon="0.23099">
        <ele>1</ele>
        <time>2019-11-16T10:20:10Z</time>
      </trkpt>
      <trkpt lat="49.42685" lon="0.23099">
        <ele>1</ele>
        <time>2019-11-16T10:20:08Z</time>
      </trkpt>
      <trkpt lat="49.42682" lon="0.23105">
        <ele>47.6193</ele>
        <time>2019-11-16T10:20:03Z</time>
      </trkpt>
      <trkpt lat="49.4268" lon="0.23108">
        <ele>47.7213</ele>
        <time>2019-11-16T10:20:00Z</time>
      </trkpt>
      <trkpt lat="49.42678" lon="0.23115">
        <ele>47.9744</ele>
        <time>2019-11-16T10:19:56Z</time>
      </trkpt>
      <trkpt lat="49.42676" lon="0.23117">
        <ele>48.1028</ele>
        <time>2019-11-16T10:19:53Z</time>
      </trkpt>
      <trkpt lat="49.42671" lon="0.23121">
        <ele>48.3104</ele>
        <time>2019-11-16T10:19:49Z</time>
      </trkpt>
      <trkpt lat="49.42668" lon="0.23125">
        <ele>48.3806</ele>
        <time>2019-11-16T10:19:47Z</time>
      </trkpt>
      <trkpt lat="49.42664" lon="0.23131">
        <ele>48.4899</ele>
        <time>2019-11-16T10:19:42Z</time>
      </trkpt>
      <trkpt lat="49.42662" lon="0.23136">
        <ele>48.6103</ele>
        <time>2019-11-16T10:19:38Z</time>
      </trkpt>
      <trkpt lat="49.4266" lon="0.23143">
        <ele>48.7872</ele>
        <time>2019-11-16T10:19:31Z</time>
      </trkpt>
      <trkpt lat="49.42658" lon="0.23146">
        <ele>48.8587</ele>
        <time>2019-11-16T10:19:20Z</time>
      </trkpt>
      <trkpt lat="49.42655" lon="0.23153">
        <ele>51.176</ele>
        <time>2019-11-16T10:19:17Z</time>
      </trkpt>
      <trkpt lat="49.42653" lon="0.2316">
        <ele>50.3649</ele>
      </trkpt>
      <trkpt lat="49.42649" lon="0.23166">
        <ele>46.8719</ele>
      </trkpt>
      <trkpt lat="49.42648" lon="0.23175">
        <ele>48.465</ele>
      </trkpt>
      <trkpt lat="49.42648" lon="0.23175">
        <ele>3.6</ele>
      </trkpt>
      <trkpt lat="49.42615" lon="0.23171">
        <ele>3.7</ele>
      </trkpt>
    </trkseg>
  </trk>
</gpx>